<?xml version="1.0" encoding="UTF-8" standalone="no" ?><gpx xmlns="http://www.topografix.com/GPX/1/1" xmlns:gpxx="http://www.garmin.com/xmlschemas/GpxExtensions/v3" xmlns:wptx1="http://www.garmin.com/xmlschemas/WaypointExtension/v1" xmlns:gpxtpx="http://www.garmin.com/xmlschemas/TrackPointExtension/v1" creator="GuideVTT.com" version="1.1" xmlns:xsi="http://www.w3.org/2001/XMLSchema-instance" xsi:schemaLocation="http://www.topografix.com/GPX/1/1 http://www.topografix.com/GPX/1/1/gpx.xsd http://www.garmin.com/xmlschemas/GpxExtensions/v3 http://www8.garmin.com/xmlschemas/GpxExtensionsv3.xsd http://www.garmin.com/xmlschemas/WaypointExtension/v1 http://www8.garmin.com/xmlschemas/WaypointExtensionv1.xsd http://www.garmin.com/xmlschemas/TrackPointExtension/v1 http://www.garmin.com/xmlschemas/TrackPointExtensionv1.xsd">
<metadata><link href="http://www.garmin.com"><text>Garmin International</text></link><time>2013-06-22T15:13:50Z</time></metadata>
<trk><name>farzin415d.gpx</name><extensions><gpxx:TrackExtension><gpxx:DisplayColor>Cyan</gpxx:DisplayColor></gpxx:TrackExtension></extensions><trkseg>
<trkpt lat="46.722303020772365" lon="6.916216075375839"><ele></ele><time>2013-10-19T13:52:53Z</time></trkpt>
<trkpt lat="46.72223045969153" lon="6.91608597125384"><ele></ele><time>2013-10-19T13:52:56Z</time></trkpt>
<trkpt lat="46.72241060488769" lon="6.9161365497722205"><ele></ele><time>2013-10-19T13:52:59Z</time></trkpt>
<trkpt lat="46.722374743522195" lon="6.916163058341992"><ele></ele><time>2013-10-19T13:53:2Z</time></trkpt>
<trkpt lat="46.722302362061384" lon="6.916072194387338"><ele></ele><time>2013-10-19T13:53:5Z</time></trkpt>
<trkpt lat="46.722085097394114" lon="6.915773443912406"><ele></ele><time>2013-10-19T13:53:8Z</time></trkpt>
<trkpt lat="46.721895237467564" lon="6.915565994180587"><ele></ele><time>2013-10-19T13:53:11Z</time></trkpt>
<trkpt lat="46.72179544992751" lon="6.915383833665235"><ele></ele><time>2013-10-19T13:53:14Z</time></trkpt>
<trkpt lat="46.72162381981512" lon="6.915228531619355"><ele></ele><time>2013-10-19T13:53:17Z</time></trkpt>
<trkpt lat="46.72145164937766" lon="6.914955511619743"><ele></ele><time>2013-10-19T13:53:20Z</time></trkpt>
<trkpt lat="46.72124325694149" lon="6.914630523353741"><ele></ele><time>2013-10-19T13:53:23Z</time></trkpt>
<trkpt lat="46.72099858196008" lon="6.914240488306123"><ele></ele><time>2013-10-19T13:53:26Z</time></trkpt>
<trkpt lat="46.720799543563125" lon="6.913993896411596"><ele></ele><time>2013-10-19T13:53:29Z</time></trkpt>
<trkpt lat="46.72052800089352" lon="6.913630289295034"><ele></ele><time>2013-10-19T13:53:32Z</time></trkpt>
<trkpt lat="46.720265813589045" lon="6.913345075831747"><ele></ele><time>2013-10-19T13:53:35Z</time></trkpt>
<trkpt lat="46.720039606693796" lon="6.913059514748397"><ele></ele><time>2013-10-19T13:53:38Z</time></trkpt>
<trkpt lat="46.71984889800646" lon="6.912668969547136"><ele></ele><time>2013-10-19T13:53:41Z</time></trkpt>
<trkpt lat="46.719658489589705" lon="6.912343824329516"><ele></ele><time>2013-10-19T13:53:44Z</time></trkpt>
<trkpt lat="46.71949518679705" lon="6.912044576904356"><ele></ele><time>2013-10-19T13:53:47Z</time></trkpt>
<trkpt lat="46.719440792600295" lon="6.911953547759453"><ele></ele><time>2013-10-19T13:53:50Z</time></trkpt>
<trkpt lat="46.71921434060911" lon="6.911615679528983"><ele></ele><time>2013-10-19T13:53:53Z</time></trkpt>
<trkpt lat="46.719168699689305" lon="6.911472246137234"><ele></ele><time>2013-10-19T13:53:56Z</time></trkpt>
<trkpt lat="46.71901384575071" lon="6.911055202569781"><ele></ele><time>2013-10-19T13:53:59Z</time></trkpt>
<trkpt lat="46.71884051556388" lon="6.91053370343798"><ele></ele><time>2013-10-19T13:54:2Z</time></trkpt>
<trkpt lat="46.71872176045926" lon="6.910142471185015"><ele></ele><time>2013-10-19T13:54:5Z</time></trkpt>
<trkpt lat="46.718694168834084" lon="6.9100119433450775"><ele></ele><time>2013-10-19T13:54:8Z</time></trkpt>
<trkpt lat="46.71865733936406" lon="6.909829186966569"><ele></ele><time>2013-10-19T13:54:11Z</time></trkpt>
<trkpt lat="46.71852897997176" lon="6.909307254113397"><ele></ele><time>2013-10-19T13:54:14Z</time></trkpt>
<trkpt lat="46.71858210217761" lon="6.909123616260834"><ele></ele><time>2013-10-19T13:54:17Z</time></trkpt>
<trkpt lat="46.718482000761306" lon="6.9088760830621965"><ele></ele><time>2013-10-19T13:54:20Z</time></trkpt>
<trkpt lat="46.7181926941811" lon="6.908565010357846"><ele></ele><time>2013-10-19T13:54:23Z</time></trkpt>
<trkpt lat="46.717866676069576" lon="6.9080973464991855"><ele></ele><time>2013-10-19T13:54:26Z</time></trkpt>
<trkpt lat="46.71759535790967" lon="6.907786104570393"><ele></ele><time>2013-10-19T13:54:29Z</time></trkpt>
<trkpt lat="46.71751403531545" lon="6.907708427305782"><ele></ele><time>2013-10-19T13:54:32Z</time></trkpt>
<trkpt lat="46.717278575432715" lon="6.907370677492255"><ele></ele><time>2013-10-19T13:54:35Z</time></trkpt>
<trkpt lat="46.717025550437434" lon="6.907124659425745"><ele></ele><time>2013-10-19T13:54:38Z</time></trkpt>
<trkpt lat="46.716799510746384" lon="6.906878377797516"><ele></ele><time>2013-10-19T13:54:41Z</time></trkpt>
<trkpt lat="46.71649208614818" lon="6.906541345506501"><ele></ele><time>2013-10-19T13:54:44Z</time></trkpt>
<trkpt lat="46.71620289518236" lon="6.906256453988216"><ele></ele><time>2013-10-19T13:54:47Z</time></trkpt>
<trkpt lat="46.71586866604566" lon="6.905958930866459"><ele></ele><time>2013-10-19T13:54:50Z</time></trkpt>
<trkpt lat="46.71551632338973" lon="6.905635432210169"><ele></ele><time>2013-10-19T13:54:53Z</time></trkpt>
<trkpt lat="46.715181725856006" lon="6.905259446607368"><ele></ele><time>2013-10-19T13:54:56Z</time></trkpt>
<trkpt lat="46.71493720222093" lon="6.9049087327275505"><ele></ele><time>2013-10-19T13:54:59Z</time></trkpt>
<trkpt lat="46.714710851688466" lon="6.904597078724194"><ele></ele><time>2013-10-19T13:55:2Z</time></trkpt>
<trkpt lat="46.71452959918245" lon="6.904311138463758"><ele></ele><time>2013-10-19T13:55:5Z</time></trkpt>
<trkpt lat="46.71447513754035" lon="6.904207047308854"><ele></ele><time>2013-10-19T13:55:8Z</time></trkpt>
<trkpt lat="46.7142037473926" lon="6.903882766382116"><ele></ele><time>2013-10-19T13:55:11Z</time></trkpt>
<trkpt lat="46.71393192700192" lon="6.903466942386876"><ele></ele><time>2013-10-19T13:55:14Z</time></trkpt>
<trkpt lat="46.71368727507277" lon="6.903090088774823"><ele></ele><time>2013-10-19T13:55:17Z</time></trkpt>
<trkpt lat="46.71346985341022" lon="6.90276528238112"><ele></ele><time>2013-10-19T13:55:20Z</time></trkpt>
<trkpt lat="46.71328890351859" lon="6.902544744297362"><ele></ele><time>2013-10-19T13:55:23Z</time></trkpt>
<trkpt lat="46.713028040395265" lon="6.90254733512746"><ele></ele><time>2013-10-19T13:55:26Z</time></trkpt>
<trkpt lat="46.71263273953605" lon="6.90265588784359"><ele></ele><time>2013-10-19T13:55:29Z</time></trkpt>
<trkpt lat="46.712219755059294" lon="6.902830005728463"><ele></ele><time>2013-10-19T13:55:32Z</time></trkpt>
<trkpt lat="46.71191465228982" lon="6.902989972264346"><ele></ele><time>2013-10-19T13:55:35Z</time></trkpt>
<trkpt lat="46.711582379318024" lon="6.903110972266923"><ele></ele><time>2013-10-19T13:55:38Z</time></trkpt>
<trkpt lat="46.71133987493452" lon="6.903191846307226"><ele></ele><time>2013-10-19T13:55:41Z</time></trkpt>
<trkpt lat="46.71128541225457" lon="6.903087762433186"><ele></ele><time>2013-10-19T13:55:44Z</time></trkpt>
<trkpt lat="46.71128338592069" lon="6.902656208073742"><ele></ele><time>2013-10-19T13:55:47Z</time></trkpt>
<trkpt lat="46.71126465810388" lon="6.9024994579110714"><ele></ele><time>2013-10-19T13:55:50Z</time></trkpt>
<trkpt lat="46.711234782607235" lon="6.901885088499609"><ele></ele><time>2013-10-19T13:55:53Z</time></trkpt>
<trkpt lat="46.710935722743926" lon="6.901417256707221"><ele></ele><time>2013-10-19T13:55:56Z</time></trkpt>
<trkpt lat="46.71061010644458" lon="6.901041239576485"><ele></ele><time>2013-10-19T13:55:59Z</time></trkpt>
<trkpt lat="46.710374996559885" lon="6.900782025142212"><ele></ele><time>2013-10-19T13:56:2Z</time></trkpt>
<trkpt lat="46.70972394367263" lon="6.900069241964794"><ele></ele><time>2013-10-19T13:56:5Z</time></trkpt>
<trkpt lat="46.70925378063669" lon="6.899563909242537"><ele></ele><time>2013-10-19T13:56:8Z</time></trkpt>
<trkpt lat="46.70921761415573" lon="6.899525037859311"><ele></ele><time>2013-10-19T13:56:11Z</time></trkpt>
<trkpt lat="46.70862114365005" lon="6.898942512954289"><ele></ele><time>2013-10-19T13:56:14Z</time></trkpt>
<trkpt lat="46.70840525689883" lon="6.898944671313581"><ele></ele><time>2013-10-19T13:56:17Z</time></trkpt>
<trkpt lat="46.70827944666366" lon="6.898972083693189"><ele></ele><time>2013-10-19T13:56:20Z</time></trkpt>
<trkpt lat="46.70806424017311" lon="6.899118084743038"><ele></ele><time>2013-10-19T13:56:23Z</time></trkpt>
<trkpt lat="46.70784139783332" lon="6.8995518589704075"><ele></ele><time>2013-10-19T13:56:26Z</time></trkpt>
<trkpt lat="46.70784306547151" lon="6.899904926287655"><ele></ele><time>2013-10-19T13:56:29Z</time></trkpt>
<trkpt lat="46.70799839216375" lon="6.900413387796039"><ele></ele><time>2013-10-19T13:56:32Z</time></trkpt>
<trkpt lat="46.70802556306336" lon="6.900452348575877"><ele></ele><time>2013-10-19T13:56:35Z</time></trkpt>
<trkpt lat="46.70818107217587" lon="6.901000043331021"><ele></ele><time>2013-10-19T13:56:38Z</time></trkpt>
<trkpt lat="46.70838112414624" lon="6.90145575685519"><ele></ele><time>2013-10-19T13:56:41Z</time></trkpt>
<trkpt lat="46.708590415620854" lon="6.901963691324351"><ele></ele><time>2013-10-19T13:56:44Z</time></trkpt>
<trkpt lat="46.70880001206106" lon="6.9025370137448006"><ele></ele><time>2013-10-19T13:56:47Z</time></trkpt>
<trkpt lat="46.70884584852868" lon="6.902719642469154"><ele></ele><time>2013-10-19T13:56:50Z</time></trkpt>
<trkpt lat="46.70879322773435" lon="6.903007867910578"><ele></ele><time>2013-10-19T13:56:53Z</time></trkpt>
<trkpt lat="46.708758289984516" lon="6.903230530410116"><ele></ele><time>2013-10-19T13:56:56Z</time></trkpt>
<trkpt lat="46.708821931878376" lon="6.903373750781057"><ele></ele><time>2013-10-19T13:56:59Z</time></trkpt>
<trkpt lat="46.70911051703351" lon="6.9035278191066265"><ele></ele><time>2013-10-19T13:57:2Z</time></trkpt>
<trkpt lat="46.70944395576825" lon="6.903655289442222"><ele></ele><time>2013-10-19T13:57:5Z</time></trkpt>
<trkpt lat="46.70946200765019" lon="6.903668188110405"><ele></ele><time>2013-10-19T13:57:8Z</time></trkpt>
<trkpt lat="46.70975928117958" lon="6.903756785534529"><ele></ele><time>2013-10-19T13:57:11Z</time></trkpt>
<trkpt lat="46.710065120831224" lon="6.903753755043536"><ele></ele><time>2013-10-19T13:57:14Z</time></trkpt>
<trkpt lat="46.71028957376276" lon="6.903659986565815"><ele></ele><time>2013-10-19T13:57:17Z</time></trkpt>
<trkpt lat="46.710495913394" lon="6.903540241208203"><ele></ele><time>2013-10-19T13:57:20Z</time></trkpt>
<trkpt lat="46.71083718213855" lon="6.903419157094017"><ele></ele><time>2013-10-19T13:57:23Z</time></trkpt>
<trkpt lat="46.71131313454538" lon="6.903244423640739"><ele></ele><time>2013-10-19T13:57:26Z</time></trkpt>
<trkpt lat="46.71161157375351" lon="6.903581493977604"><ele></ele><time>2013-10-19T13:57:29Z</time></trkpt>
<trkpt lat="46.711955417320844" lon="6.904009665481024"><ele></ele><time>2013-10-19T13:57:32Z</time></trkpt>
<trkpt lat="46.71237942076337" lon="6.904267031503254"><ele></ele><time>2013-10-19T13:57:35Z</time></trkpt>
<trkpt lat="46.71246955731038" lon="6.90430537407385"><ele></ele><time>2013-10-19T13:57:38Z</time></trkpt>
<trkpt lat="46.712550821029396" lon="6.904369961237575"><ele></ele><time>2013-10-19T13:57:41Z</time></trkpt>
<trkpt lat="46.713246395189245" lon="6.904990843863992"><ele></ele><time>2013-10-19T13:57:44Z</time></trkpt>
<trkpt lat="46.71352659411624" lon="6.905275801879598"><ele></ele><time>2013-10-19T13:57:47Z</time></trkpt>
<trkpt lat="46.713707172078514" lon="6.905417882121634"><ele></ele><time>2013-10-19T13:57:50Z</time></trkpt>
<trkpt lat="46.71378849626214" lon="6.905495550455987"><ele></ele><time>2013-10-19T13:57:53Z</time></trkpt>
<trkpt lat="46.71426951978919" lon="6.906406310624399"><ele></ele><time>2013-10-19T13:57:56Z</time></trkpt>
<trkpt lat="46.714731692788774" lon="6.907134168687773"><ele></ele><time>2013-10-19T13:57:59Z</time></trkpt>
<trkpt lat="46.71484936233819" lon="6.907289956467376"><ele></ele><time>2013-10-19T13:58:2Z</time></trkpt>
<trkpt lat="46.715374800705106" lon="6.908082602911891"><ele></ele><time>2013-10-19T13:58:5Z</time></trkpt>
<trkpt lat="46.71549246895227" lon="6.908238394615666"><ele></ele><time>2013-10-19T13:58:8Z</time></trkpt>
<trkpt lat="46.71562837062294" lon="6.908446324116696"><ele></ele><time>2013-10-19T13:58:11Z</time></trkpt>
<trkpt lat="46.715836780785054" lon="6.90877125469224"><ele></ele><time>2013-10-19T13:58:14Z</time></trkpt>
<trkpt lat="46.71618206059508" lon="6.909513379149379"><ele></ele><time>2013-10-19T13:58:17Z</time></trkpt>
<trkpt lat="46.71647197064403" lon="6.909955232045132"><ele></ele><time>2013-10-19T13:58:20Z</time></trkpt>
<trkpt lat="46.71680655266229" lon="6.910331255748688"><ele></ele><time>2013-10-19T13:58:23Z</time></trkpt>
<trkpt lat="46.71706868707129" lon="6.910603357473594"><ele></ele><time>2013-10-19T13:58:26Z</time></trkpt>
<trkpt lat="46.71721436599073" lon="6.910981236093769"><ele></ele><time>2013-10-19T13:58:29Z</time></trkpt>
<trkpt lat="46.717387875397925" lon="6.911541957629993"><ele></ele><time>2013-10-19T13:58:32Z</time></trkpt>
<trkpt lat="46.71759682000593" lon="6.911984621254344"><ele></ele><time>2013-10-19T13:58:35Z</time></trkpt>
<trkpt lat="46.71762392657276" lon="6.912010515837401"><ele></ele><time>2013-10-19T13:58:38Z</time></trkpt>
<trkpt lat="46.71782302964553" lon="6.912270164906695"><ele></ele><time>2013-10-19T13:58:41Z</time></trkpt>
<trkpt lat="46.71807634500155" lon="6.91258160603976"><ele></ele><time>2013-10-19T13:58:44Z</time></trkpt>
<trkpt lat="46.71808558143779" lon="6.912633834620627"><ele></ele><time>2013-10-19T13:58:47Z</time></trkpt>
<trkpt lat="46.717968763317316" lon="6.912661132343439"><ele></ele><time>2013-10-19T13:58:50Z</time></trkpt>
<trkpt lat="46.717501068833286" lon="6.91267876959639"><ele></ele><time>2013-10-19T13:58:53Z</time></trkpt>
<trkpt lat="46.717078169906934" lon="6.912656731816131"><ele></ele><time>2013-10-19T13:58:56Z</time></trkpt>
<trkpt lat="46.71670900151529" lon="6.912581853480239"><ele></ele><time>2013-10-19T13:58:59Z</time></trkpt>
<trkpt lat="46.71642942408533" lon="6.912427627352825"><ele></ele><time>2013-10-19T13:59:2Z</time></trkpt>
<trkpt lat="46.71611350331333" lon="6.912195282200224"><ele></ele><time>2013-10-19T13:59:5Z</time></trkpt>
<trkpt lat="46.716003568010564" lon="6.911764742583627"><ele></ele><time>2013-10-19T13:59:8Z</time></trkpt>
<trkpt lat="46.715848654659375" lon="6.91133464411447"><ele></ele><time>2013-10-19T13:59:11Z</time></trkpt>
<trkpt lat="46.71570309784253" lon="6.910982931071808"><ele></ele><time>2013-10-19T13:59:14Z</time></trkpt>
<trkpt lat="46.71555760045352" lon="6.910644298375285"><ele></ele><time>2013-10-19T13:59:17Z</time></trkpt>
<trkpt lat="46.71542158171003" lon="6.910410206780694"><ele></ele><time>2013-10-19T13:59:20Z</time></trkpt>
<trkpt lat="46.71525863719802" lon="6.910189458954337"><ele></ele><time>2013-10-19T13:59:23Z</time></trkpt>
<trkpt lat="46.714851971168144" lon="6.909787995404503"><ele></ele><time>2013-10-19T13:59:26Z</time></trkpt>
<trkpt lat="46.714417225781624" lon="6.909151395424378"><ele></ele><time>2013-10-19T13:59:29Z</time></trkpt>
<trkpt lat="46.714026602495515" lon="6.908331270912688"><ele></ele><time>2013-10-19T13:59:32Z</time></trkpt>
<trkpt lat="46.71386310664624" lon="6.907992832748115"><ele></ele><time>2013-10-19T13:59:35Z</time></trkpt>
<trkpt lat="46.713418990551844" lon="6.907277879866667"><ele></ele><time>2013-10-19T13:59:38Z</time></trkpt>
<trkpt lat="46.712895131726334" lon="6.906825292758689"><ele></ele><time>2013-10-19T13:59:41Z</time></trkpt>
<trkpt lat="46.71267753770857" lon="6.90646124284638"><ele></ele><time>2013-10-19T13:59:44Z</time></trkpt>
<trkpt lat="46.71248644005178" lon="6.905992308033441"><ele></ele><time>2013-10-19T13:59:47Z</time></trkpt>
<trkpt lat="46.71216995633835" lon="6.905642318918681"><ele></ele><time>2013-10-19T13:59:50Z</time></trkpt>
<trkpt lat="46.71180880073891" lon="6.905358165976787"><ele></ele><time>2013-10-19T13:59:53Z</time></trkpt>
<trkpt lat="46.711348757450274" lon="6.905088072321963"><ele></ele><time>2013-10-19T13:59:56Z</time></trkpt>
<trkpt lat="46.71115955072349" lon="6.905024552588964"><ele></ele><time>2013-10-19T13:59:59Z</time></trkpt>
<trkpt lat="46.71108795536956" lon="6.905103728127001"><ele></ele><time>2013-10-19T14:0:2Z</time></trkpt>
<trkpt lat="46.711044568297005" lon="6.9054441837539144"><ele></ele><time>2013-10-19T14:0:5Z</time></trkpt>
<trkpt lat="46.710991574146774" lon="6.9056539542572315"><ele></ele><time>2013-10-19T14:0:8Z</time></trkpt>
<trkpt lat="46.71087622315402" lon="6.90599511891804"><ele></ele><time>2013-10-19T14:0:11Z</time></trkpt>
<trkpt lat="46.71064570100134" lon="6.906716675628299"><ele></ele><time>2013-10-19T14:0:14Z</time></trkpt>
<trkpt lat="46.71067378395701" lon="6.906951800411416"><ele></ele><time>2013-10-19T14:0:17Z</time></trkpt>
<trkpt lat="46.71067445416738" lon="6.907095650289907"><ele></ele><time>2013-10-19T14:0:20Z</time></trkpt>
<trkpt lat="46.71067652458009" lon="6.907540277209655"><ele></ele><time>2013-10-19T14:0:23Z</time></trkpt>
<trkpt lat="46.710831391490075" lon="6.907957246273607"><ele></ele><time>2013-10-19T14:0:26Z</time></trkpt>
<trkpt lat="46.711202143748544" lon="6.9083720969837294"><ele></ele><time>2013-10-19T14:0:29Z</time></trkpt>
<trkpt lat="46.71149145105177" lon="6.908683128364683"><ele></ele><time>2013-10-19T14:0:32Z</time></trkpt>
<trkpt lat="46.71181698144195" lon="6.90904612019466"><ele></ele><time>2013-10-19T14:0:35Z</time></trkpt>
<trkpt lat="46.712088478293474" lon="6.909396567956664"><ele></ele><time>2013-10-19T14:0:38Z</time></trkpt>
<trkpt lat="46.71247697339956" lon="6.909758951155323"><ele></ele><time>2013-10-19T14:0:41Z</time></trkpt>
<trkpt lat="46.71284777961464" lon="6.910186904681846"><ele></ele><time>2013-10-19T14:0:44Z</time></trkpt>
<trkpt lat="46.713254323277994" lon="6.910562200547661"><ele></ele><time>2013-10-19T14:0:47Z</time></trkpt>
<trkpt lat="46.713642935597356" lon="6.910950755935129"><ele></ele><time>2013-10-19T14:0:50Z</time></trkpt>
<trkpt lat="46.71419370345183" lon="6.911390047642567"><ele></ele><time>2013-10-19T14:0:53Z</time></trkpt>
<trkpt lat="46.71482572902731" lon="6.911893949530364"><ele></ele><time>2013-10-19T14:0:56Z</time></trkpt>
<trkpt lat="46.71496108086934" lon="6.911984180912195"><ele></ele><time>2013-10-19T14:0:59Z</time></trkpt>
<trkpt lat="46.71514165045262" lon="6.912126287375104"><ele></ele><time>2013-10-19T14:1:2Z</time></trkpt>
<trkpt lat="46.71540323775368" lon="6.912280683701962"><ele></ele><time>2013-10-19T14:1:5Z</time></trkpt>
<trkpt lat="46.71552071933856" lon="6.912397249314004"><ele></ele><time>2013-10-19T14:1:8Z</time></trkpt>
<trkpt lat="46.715638080202105" lon="6.912487658492269"><ele></ele><time>2013-10-19T14:1:11Z</time></trkpt>
<trkpt lat="46.71603616317134" lon="6.912980785823816"><ele></ele><time>2013-10-19T14:1:14Z</time></trkpt>
<trkpt lat="46.71615370426509" lon="6.91311043292308"><ele></ele><time>2013-10-19T14:1:17Z</time></trkpt>
<trkpt lat="46.716569414022906" lon="6.913524922371126"><ele></ele><time>2013-10-19T14:1:20Z</time></trkpt>
<trkpt lat="46.716641677204606" lon="6.913589615827146"><ele></ele><time>2013-10-19T14:1:23Z</time></trkpt>
<trkpt lat="46.71726535883542" lon="6.914237521285619"><ele></ele><time>2013-10-19T14:1:26Z</time></trkpt>
<trkpt lat="46.71743723069277" lon="6.914445123272462"><ele></ele><time>2013-10-19T14:1:29Z</time></trkpt>
<trkpt lat="46.71759111159837" lon="6.914652901238401"><ele></ele><time>2013-10-19T14:1:32Z</time></trkpt>
<trkpt lat="46.717853175658334" lon="6.91491194889937"><ele></ele><time>2013-10-19T14:1:35Z</time></trkpt>
<trkpt lat="46.71788885666119" lon="6.914846204662944"><ele></ele><time>2013-10-19T14:1:38Z</time></trkpt>
<trkpt lat="46.717924537626075" lon="6.914780460339587"><ele></ele><time>2013-10-19T14:1:41Z</time></trkpt>
<trkpt lat="46.718156252653785" lon="6.91430734332858"><ele></ele><time>2013-10-19T14:1:44Z</time></trkpt>
<trkpt lat="46.71835156350798" lon="6.913743018211428"><ele></ele><time>2013-10-19T14:1:47Z</time></trkpt>
<trkpt lat="46.71825062935301" lon="6.9133123700347126"><ele></ele><time>2013-10-19T14:1:50Z</time></trkpt>
<trkpt lat="46.71823125361875" lon="6.913011725841826"><ele></ele><time>2013-10-19T14:1:53Z</time></trkpt>
<trkpt lat="46.718284803591054" lon="6.9129196464355225"><ele></ele><time>2013-10-19T14:1:56Z</time></trkpt>
<trkpt lat="46.71866158098241" lon="6.912693619973176"><ele></ele><time>2013-10-19T14:1:59Z</time></trkpt>
<trkpt lat="46.71902881983088" lon="6.912349964419259"><ele></ele><time>2013-10-19T14:2:2Z</time></trkpt>
<trkpt lat="46.71927108920217" lon="6.912216802607213"><ele></ele><time>2013-10-19T14:2:5Z</time></trkpt>
<trkpt lat="46.71933315101348" lon="6.912019997960152"><ele></ele><time>2013-10-19T14:2:8Z</time></trkpt>
<trkpt lat="46.71942250020221" lon="6.911888326386364"><ele></ele><time>2013-10-19T14:2:11Z</time></trkpt>
<trkpt lat="46.71947713587982" lon="6.912031673036239"><ele></ele><time>2013-10-19T14:2:14Z</time></trkpt>
<trkpt lat="46.71974916612325" lon="6.91249990076289"><ele></ele><time>2013-10-19T14:2:17Z</time></trkpt>
<trkpt lat="46.720111147259225" lon="6.912967257077348"><ele></ele><time>2013-10-19T14:2:20Z</time></trkpt>
<trkpt lat="46.720382752257144" lon="6.913343937670421"><ele></ele><time>2013-10-19T14:2:23Z</time></trkpt>
<trkpt lat="46.72069981365225" lon="6.913824822200529"><ele></ele><time>2013-10-19T14:2:26Z</time></trkpt>
<trkpt lat="46.72107983998672" lon="6.914305100638184"><ele></ele><time>2013-10-19T14:2:29Z</time></trkpt>
<trkpt lat="46.7214150079482" lon="6.914811982148894"><ele></ele><time>2013-10-19T14:2:32Z</time></trkpt>
<trkpt lat="46.72170465737807" lon="6.915201586580022"><ele></ele><time>2013-10-19T14:2:35Z</time></trkpt>
<trkpt lat="46.722084558005655" lon="6.915655723583182"><ele></ele><time>2013-10-19T14:2:38Z</time></trkpt>
<trkpt lat="46.72233846297044" lon="6.91609800618644"><ele></ele><time>2013-10-19T14:2:41Z</time></trkpt>
<trkpt lat="46.72275272501568" lon="6.916198641370015"><ele></ele><time>2013-10-19T14:2:44Z</time></trkpt>
<trkpt lat="46.723220240157104" lon="6.91614179197143"><ele></ele><time>2013-10-19T14:2:47Z</time></trkpt>
<trkpt lat="46.72331918825535" lon="6.916140833987721"><ele></ele><time>2013-10-19T14:2:50Z</time></trkpt>
<trkpt lat="46.72406759244697" lon="6.916526020981578"><ele></ele><time>2013-10-19T14:2:53Z</time></trkpt>
<trkpt lat="46.72418471061308" lon="6.916564131272974"><ele></ele><time>2013-10-19T14:2:56Z</time></trkpt>
<trkpt lat="46.72469000155406" lon="6.916899355478004"><ele></ele><time>2013-10-19T14:2:59Z</time></trkpt>
<trkpt lat="46.72483470327484" lon="6.917068013186505"><ele></ele><time>2013-10-19T14:3:2Z</time></trkpt>
<trkpt lat="46.72504416376551" lon="6.917628486099585"><ele></ele><time>2013-10-19T14:3:5Z</time></trkpt>
<trkpt lat="46.7250007990538" lon="6.917982100450058"><ele></ele><time>2013-10-19T14:3:8Z</time></trkpt>
<trkpt lat="46.72504637210815" lon="6.918112474092454"><ele></ele><time>2013-10-19T14:3:11Z</time></trkpt>
<trkpt lat="46.72521865417963" lon="6.918411683950764"><ele></ele><time>2013-10-19T14:3:14Z</time></trkpt>
<trkpt lat="46.72541792130872" lon="6.918710635726044"><ele></ele><time>2013-10-19T14:3:17Z</time></trkpt>
<trkpt lat="46.72568080963076" lon="6.919152873433834"><ele></ele><time>2013-10-19T14:3:20Z</time></trkpt>
<trkpt lat="46.72586226274965" lon="6.919491246459165"><ele></ele><time>2013-10-19T14:3:23Z</time></trkpt>
<trkpt lat="46.72599850059882" lon="6.919777730195856"><ele></ele><time>2013-10-19T14:3:26Z</time></trkpt>
<trkpt lat="46.726224987696305" lon="6.9201287562016836"><ele></ele><time>2013-10-19T14:3:29Z</time></trkpt>
<trkpt lat="46.72646982056145" lon="6.920558099040196"><ele></ele><time>2013-10-19T14:3:32Z</time></trkpt>
<trkpt lat="46.726506929580886" lon="6.9208062947700455"><ele></ele><time>2013-10-19T14:3:35Z</time></trkpt>
<trkpt lat="46.7264366877946" lon="6.9211863371208215"><ele></ele><time>2013-10-19T14:3:38Z</time></trkpt>
<trkpt lat="46.72619511949966" lon="6.921476448812149"><ele></ele><time>2013-10-19T14:3:41Z</time></trkpt>
<trkpt lat="46.72597094856933" lon="6.92163557574142"><ele></ele><time>2013-10-19T14:3:44Z</time></trkpt>
<trkpt lat="46.725781810591684" lon="6.92158506171349"><ele></ele><time>2013-10-19T14:3:47Z</time></trkpt>
<trkpt lat="46.72557450421911" lon="6.921495477761193"><ele></ele><time>2013-10-19T14:3:50Z</time></trkpt>
<trkpt lat="46.725394361455635" lon="6.921444878386744"><ele></ele><time>2013-10-19T14:3:53Z</time></trkpt>
<trkpt lat="46.72530452716492" lon="6.9214719021195"><ele></ele><time>2013-10-19T14:3:56Z</time></trkpt>
<trkpt lat="46.7251416635103" lon="6.921264161246273"><ele></ele><time>2013-10-19T14:3:59Z</time></trkpt>
<trkpt lat="46.72488860934525" lon="6.921004961465621"><ele></ele><time>2013-10-19T14:4:2Z</time></trkpt>
<trkpt lat="46.72459022200631" lon="6.9206677118395"><ele></ele><time>2013-10-19T14:4:5Z</time></trkpt>
<trkpt lat="46.724292308837846" lon="6.920435110557152"><ele></ele><time>2013-10-19T14:4:8Z</time></trkpt>
<trkpt lat="46.72393976979737" lon="6.920059144921513"><ele></ele><time>2013-10-19T14:4:11Z</time></trkpt>
<trkpt lat="46.723596403214785" lon="6.919722338920806"><ele></ele><time>2013-10-19T14:4:14Z</time></trkpt>
<trkpt lat="46.72353331727773" lon="6.919696783587036"><ele></ele><time>2013-10-19T14:4:17Z</time></trkpt>
<trkpt lat="46.72339797164985" lon="6.919606518526589"><ele></ele><time>2013-10-19T14:4:20Z</time></trkpt>
<trkpt lat="46.723326187827105" lon="6.919646451647088"><ele></ele><time>2013-10-19T14:4:23Z</time></trkpt>
<trkpt lat="46.72314812533693" lon="6.920053671004608"><ele></ele><time>2013-10-19T14:4:26Z</time></trkpt>
<trkpt lat="46.72297893789662" lon="6.920434640788742"><ele></ele><time>2013-10-19T14:4:29Z</time></trkpt>
<trkpt lat="46.72273808361438" lon="6.920881699662155"><ele></ele><time>2013-10-19T14:4:32Z</time></trkpt>
<trkpt lat="46.72256824105458" lon="6.921118782196856"><ele></ele><time>2013-10-19T14:4:35Z</time></trkpt>
<trkpt lat="46.72229826384116" lon="6.921095209753601"><ele></ele><time>2013-10-19T14:4:38Z</time></trkpt>
<trkpt lat="46.722244588681036" lon="6.921161127731969"><ele></ele><time>2013-10-19T14:4:41Z</time></trkpt>
<trkpt lat="46.7223082672721" lon="6.9213174851350745"><ele></ele><time>2013-10-19T14:4:44Z</time></trkpt>
<trkpt lat="46.72241674425823" lon="6.9214341715411045"><ele></ele><time>2013-10-19T14:4:47Z</time></trkpt>
<trkpt lat="46.722434794106874" lon="6.921447079257181"><ele></ele><time>2013-10-19T14:4:50Z</time></trkpt>
<trkpt lat="46.72279567227253" lon="6.9216790749610375"><ele></ele><time>2013-10-19T14:4:53Z</time></trkpt>
<trkpt lat="46.723192767973565" lon="6.9219630505056156"><ele></ele><time>2013-10-19T14:4:56Z</time></trkpt>
<trkpt lat="46.72359004049544" lon="6.922286271455523"><ele></ele><time>2013-10-19T14:4:59Z</time></trkpt>
<trkpt lat="46.7239247590398" lon="6.9227016626816855"><ele></ele><time>2013-10-19T14:5:2Z</time></trkpt>
<trkpt lat="46.7242507761742" lon="6.923182547837983"><ele></ele><time>2013-10-19T14:5:5Z</time></trkpt>
<trkpt lat="46.7246219447588" lon="6.923702251597388"><ele></ele><time>2013-10-19T14:5:8Z</time></trkpt>
<trkpt lat="46.72524627567043" lon="6.924507339499879"><ele></ele><time>2013-10-19T14:5:11Z</time></trkpt>
<trkpt lat="46.72587030668475" lon="6.925247041208618"><ele></ele><time>2013-10-19T14:5:14Z</time></trkpt>
<trkpt lat="46.726503445658054" lon="6.926012836810737"><ele></ele><time>2013-10-19T14:5:17Z</time></trkpt>
<trkpt lat="46.727190727154564" lon="6.926817382308531"><ele></ele><time>2013-10-19T14:5:20Z</time></trkpt>
<trkpt lat="46.72780598207433" lon="6.927609548327826"><ele></ele><time>2013-10-19T14:5:23Z</time></trkpt>
<trkpt lat="46.72798700033477" lon="6.927856392750981"><ele></ele><time>2013-10-19T14:5:26Z</time></trkpt>
<trkpt lat="46.72798998394539" lon="6.928523548300123"><ele></ele><time>2013-10-19T14:5:29Z</time></trkpt>
<trkpt lat="46.72790978626804" lon="6.928694372608671"><ele></ele><time>2013-10-19T14:5:32Z</time></trkpt>
<trkpt lat="46.72745476396185" lon="6.929535914348068"><ele></ele><time>2013-10-19T14:5:35Z</time></trkpt>
<trkpt lat="46.727062236392435" lon="6.930272198765176"><ele></ele><time>2013-10-19T14:5:38Z</time></trkpt>
<trkpt lat="46.72683915960996" lon="6.930679834607287"><ele></ele><time>2013-10-19T14:5:41Z</time></trkpt>
<trkpt lat="46.72655032044916" lon="6.930460164781035"><ele></ele><time>2013-10-19T14:5:44Z</time></trkpt>
<trkpt lat="46.726234961077544" lon="6.930345400005852"><ele></ele><time>2013-10-19T14:5:47Z</time></trkpt>
<trkpt lat="46.72608326417606" lon="6.930621541808095"><ele></ele><time>2013-10-19T14:5:50Z</time></trkpt>
<trkpt lat="46.72602093751283" lon="6.930766025645096"><ele></ele><time>2013-10-19T14:5:53Z</time></trkpt>
<trkpt lat="46.72586935593796" lon="6.931068327111049"><ele></ele><time>2013-10-19T14:5:56Z</time></trkpt>
<trkpt lat="46.72585142352842" lon="6.9310815772879515"><ele></ele><time>2013-10-19T14:5:59Z</time></trkpt>
<trkpt lat="46.725706567956756" lon="6.930873636032449"><ele></ele><time>2013-10-19T14:6:2Z</time></trkpt>
<trkpt lat="46.725634256438106" lon="6.930795827650202"><ele></ele><time>2013-10-19T14:6:5Z</time></trkpt>
<trkpt lat="46.72543542859943" lon="6.930588396106809"><ele></ele><time>2013-10-19T14:6:8Z</time></trkpt>
<trkpt lat="46.72533607277564" lon="6.930497761749181"><ele></ele><time>2013-10-19T14:6:11Z</time></trkpt>
<trkpt lat="46.72511896248206" lon="6.930225097977931"><ele></ele><time>2013-10-19T14:6:14Z</time></trkpt>
<trkpt lat="46.72498345035951" lon="6.930095561594122"><ele></ele><time>2013-10-19T14:6:17Z</time></trkpt>
<trkpt lat="46.72473929490972" lon="6.9298100749607885"><ele></ele><time>2013-10-19T14:6:20Z</time></trkpt>
<trkpt lat="46.724558455842796" lon="6.929602480794681"><ele></ele><time>2013-10-19T14:6:23Z</time></trkpt>
<trkpt lat="46.724314357521436" lon="6.929330079232678"><ele></ele><time>2013-10-19T14:6:26Z</time></trkpt>
<trkpt lat="46.7240429222286" lon="6.928979451792906"><ele></ele><time>2013-10-19T14:6:29Z</time></trkpt>
<trkpt lat="46.7238078176982" lon="6.928706970655901"><ele></ele><time>2013-10-19T14:6:32Z</time></trkpt>
<trkpt lat="46.72376260746134" lon="6.928655073803964"><ele></ele><time>2013-10-19T14:6:35Z</time></trkpt>
<trkpt lat="46.7235093361215" lon="6.928343524406934"><ele></ele><time>2013-10-19T14:6:38Z</time></trkpt>
<trkpt lat="46.72320215070028" lon="6.928045568898782"><ele></ele><time>2013-10-19T14:6:41Z</time></trkpt>
<trkpt lat="46.72303030368664" lon="6.927837901419853"><ele></ele><time>2013-10-19T14:6:44Z</time></trkpt>
<trkpt lat="46.722912369469014" lon="6.927616643970753"><ele></ele><time>2013-10-19T14:6:47Z</time></trkpt>
<trkpt lat="46.72262299690009" lon="6.9272792849066755"><ele></ele><time>2013-10-19T14:6:50Z</time></trkpt>
<trkpt lat="46.72248689511098" lon="6.927018960445851"><ele></ele><time>2013-10-19T14:6:53Z</time></trkpt>
<trkpt lat="46.722476316090905" lon="6.926665881835872"><ele></ele><time>2013-10-19T14:6:56Z</time></trkpt>
<trkpt lat="46.722581323850015" lon="6.926010849380246"><ele></ele><time>2013-10-19T14:6:59Z</time></trkpt>
<trkpt lat="46.722587967861585" lon="6.925487557142924"><ele></ele><time>2013-10-19T14:7:2Z</time></trkpt>
<trkpt lat="46.72219893449254" lon="6.92499419207458"><ele></ele><time>2013-10-19T14:7:5Z</time></trkpt>
<trkpt lat="46.72192760363611" lon="6.924669760205604"><ele></ele><time>2013-10-19T14:7:8Z</time></trkpt>
<trkpt lat="46.72180096261054" lon="6.924513999790742"><ele></ele><time>2013-10-19T14:7:11Z</time></trkpt>
<trkpt lat="46.72174628368498" lon="6.924357554368348"><ele></ele><time>2013-10-19T14:7:14Z</time></trkpt>
<trkpt lat="46.72131256392307" lon="6.923930033428033"><ele></ele><time>2013-10-19T14:7:17Z</time></trkpt>
<trkpt lat="46.72123119334962" lon="6.923839246647878"><ele></ele><time>2013-10-19T14:7:20Z</time></trkpt>
<trkpt lat="46.72088795590619" lon="6.923528593011263"><ele></ele><time>2013-10-19T14:7:23Z</time></trkpt>
<trkpt lat="46.720580580615945" lon="6.92319144034365"><ele></ele><time>2013-10-19T14:7:26Z</time></trkpt>
<trkpt lat="46.720336526002086" lon="6.922932167480564"><ele></ele><time>2013-10-19T14:7:29Z</time></trkpt>
<trkpt lat="46.72017378317886" lon="6.922750600487209"><ele></ele><time>2013-10-19T14:7:32Z</time></trkpt>
<trkpt lat="46.71975804790835" lon="6.922322932812392"><ele></ele><time>2013-10-19T14:7:35Z</time></trkpt>
<trkpt lat="46.71948676860344" lon="6.922011608461731"><ele></ele><time>2013-10-19T14:7:38Z</time></trkpt>
<trkpt lat="46.71938734668859" lon="6.921907920495738"><ele></ele><time>2013-10-19T14:7:41Z</time></trkpt>
<trkpt lat="46.719350950938434" lon="6.921816709317857"><ele></ele><time>2013-10-19T14:7:44Z</time></trkpt>
<trkpt lat="46.719205070816166" lon="6.921386469111827"><ele></ele><time>2013-10-19T14:7:47Z</time></trkpt>
<trkpt lat="46.71910380949992" lon="6.920877323911646"><ele></ele><time>2013-10-19T14:7:50Z</time></trkpt>
<trkpt lat="46.719021546050165" lon="6.920590355953868"><ele></ele><time>2013-10-19T14:7:53Z</time></trkpt>
<trkpt lat="46.71881293195689" lon="6.920213043569823"><ele></ele><time>2013-10-19T14:7:56Z</time></trkpt>
<trkpt lat="46.71872210251427" lon="6.920020989012766"><ele></ele><time>2013-10-19T14:7:59Z</time></trkpt>
<trkpt lat="46.71867638297302" lon="6.919857930999034"><ele></ele><time>2013-10-19T14:8:2Z</time></trkpt>
<trkpt lat="46.71854041291547" lon="6.9196303422471175"><ele></ele><time>2013-10-19T14:8:5Z</time></trkpt>
<trkpt lat="46.71840459117089" lon="6.919435452513758"><ele></ele><time>2013-10-19T14:8:8Z</time></trkpt>
<trkpt lat="46.71822364382473" lon="6.919208298823385"><ele></ele><time>2013-10-19T14:8:11Z</time></trkpt>
<trkpt lat="46.71793848684692" lon="6.919802895410296"><ele></ele><time>2013-10-19T14:8:14Z</time></trkpt>
<trkpt lat="46.71776900303852" lon="6.920118434228445"><ele></ele><time>2013-10-19T14:8:17Z</time></trkpt>
<trkpt lat="46.71769745667566" lon="6.920210678415937"><ele></ele><time>2013-10-19T14:8:20Z</time></trkpt>
<trkpt lat="46.7176706490499" lon="6.920250174537608"><ele></ele><time>2013-10-19T14:8:23Z</time></trkpt>
<trkpt lat="46.717491871811056" lon="6.920500402083948"><ele></ele><time>2013-10-19T14:8:26Z</time></trkpt>
<trkpt lat="46.717402928211726" lon="6.920723607040229"><ele></ele><time>2013-10-19T14:8:29Z</time></trkpt>
<trkpt lat="46.71734091071366" lon="6.92093347353136"><ele></ele><time>2013-10-19T14:8:32Z</time></trkpt>
<trkpt lat="46.71730552281522" lon="6.921064607496168"><ele></ele><time>2013-10-19T14:8:35Z</time></trkpt>
<trkpt lat="46.71734221569736" lon="6.921221209175803"><ele></ele><time>2013-10-19T14:8:38Z</time></trkpt>
<trkpt lat="46.71751585248752" lon="6.921821201764472"><ele></ele><time>2013-10-19T14:8:41Z</time></trkpt>
<trkpt lat="46.717644154655744" lon="6.922343154575894"><ele></ele><time>2013-10-19T14:8:44Z</time></trkpt>
<trkpt lat="46.717817844644536" lon="6.9229562331413455"><ele></ele><time>2013-10-19T14:8:47Z</time></trkpt>
<trkpt lat="46.71795472357661" lon="6.923386552404637"><ele></ele><time>2013-10-19T14:8:50Z</time></trkpt>
<trkpt lat="46.718073551295745" lon="6.92380396638089"><ele></ele><time>2013-10-19T14:8:53Z</time></trkpt>
<trkpt lat="46.718237825557196" lon="6.92432558643097"><ele></ele><time>2013-10-19T14:8:56Z</time></trkpt>
<trkpt lat="46.718429436594725" lon="6.924925427729017"><ele></ele><time>2013-10-19T14:8:59Z</time></trkpt>
<trkpt lat="46.718539557510425" lon="6.925408330252893"><ele></ele><time>2013-10-19T14:9:2Z</time></trkpt>
<trkpt lat="46.71869424145015" lon="6.9257992528804975"><ele></ele><time>2013-10-19T14:9:5Z</time></trkpt>
<trkpt lat="46.71886632724524" lon="6.926059214253783"><ele></ele><time>2013-10-19T14:9:8Z</time></trkpt>
<trkpt lat="46.71914612108312" lon="6.92626583530464"><ele></ele><time>2013-10-19T14:9:11Z</time></trkpt>
<trkpt lat="46.71947048007295" lon="6.926380475787989"><ele></ele><time>2013-10-19T14:9:14Z</time></trkpt>
<trkpt lat="46.71980430375371" lon="6.926599668256944"><ele></ele><time>2013-10-19T14:9:17Z</time></trkpt>
<trkpt lat="46.72014770881377" lon="6.9269495739258"><ele></ele><time>2013-10-19T14:9:20Z</time></trkpt>
<trkpt lat="46.72053644085097" lon="6.9273775359661345"><ele></ele><time>2013-10-19T14:9:23Z</time></trkpt>
<trkpt lat="46.720906946486075" lon="6.92775335539732"><ele></ele><time>2013-10-19T14:9:26Z</time></trkpt>
<trkpt lat="46.721178502652045" lon="6.928130115955529"><ele></ele><time>2013-10-19T14:9:29Z</time></trkpt>
<trkpt lat="46.721423071688946" lon="6.928507135381386"><ele></ele><time>2013-10-19T14:9:32Z</time></trkpt>
<trkpt lat="46.721397079513544" lon="6.92872974848361"><ele></ele><time>2013-10-19T14:9:35Z</time></trkpt>
<trkpt lat="46.72105666050814" lon="6.92904689325084"><ele></ele><time>2013-10-19T14:9:38Z</time></trkpt>
<trkpt lat="46.720716474068546" lon="6.929416352896589"><ele></ele><time>2013-10-19T14:9:41Z</time></trkpt>
<trkpt lat="46.720394218690316" lon="6.92977255862128"><ele></ele><time>2013-10-19T14:9:44Z</time></trkpt>
<trkpt lat="46.72023265328506" lon="6.929852562863936"><ele></ele><time>2013-10-19T14:9:47Z</time></trkpt>
<trkpt lat="46.720044101936395" lon="6.929932820984059"><ele></ele><time>2013-10-19T14:9:50Z</time></trkpt>
<trkpt lat="46.71999071311584" lon="6.930064125142285"><ele></ele><time>2013-10-19T14:9:53Z</time></trkpt>
<trkpt lat="46.72003609756666" lon="6.930155258214721"><ele></ele><time>2013-10-19T14:9:56Z</time></trkpt>
<trkpt lat="46.72030717990802" lon="6.930427387803469"><ele></ele><time>2013-10-19T14:9:59Z</time></trkpt>
<trkpt lat="46.720552090565036" lon="6.9308828896423265"><ele></ele><time>2013-10-19T14:10:2Z</time></trkpt>
<trkpt lat="46.72076983908128" lon="6.931299410067579"><ele></ele><time>2013-10-19T14:10:5Z</time></trkpt>
<trkpt lat="46.72112263169621" lon="6.931740826146962"><ele></ele><time>2013-10-19T14:10:8Z</time></trkpt>
<trkpt lat="46.7215112876802" lon="6.9321557505154425"><ele></ele><time>2013-10-19T14:10:11Z</time></trkpt>
<trkpt lat="46.721674305632305" lon="6.932402750146838"><ele></ele><time>2013-10-19T14:10:14Z</time></trkpt>
<trkpt lat="46.72171075092076" lon="6.932507052354583"><ele></ele><time>2013-10-19T14:10:17Z</time></trkpt>
<trkpt lat="46.721523647220145" lon="6.932914301373085"><ele></ele><time>2013-10-19T14:10:20Z</time></trkpt>
<trkpt lat="46.721192848964925" lon="6.93337521448453"><ele></ele><time>2013-10-19T14:10:23Z</time></trkpt>
<trkpt lat="46.72093337471617" lon="6.933691571305694"><ele></ele><time>2013-10-19T14:10:26Z</time></trkpt>
<trkpt lat="46.7206832996923" lon="6.934099398995481"><ele></ele><time>2013-10-19T14:10:29Z</time></trkpt>
<trkpt lat="46.72062044825676" lon="6.934126147041903"><ele></ele><time>2013-10-19T14:10:32Z</time></trkpt>
<trkpt lat="46.72076495116108" lon="6.934255599007535"><ele></ele><time>2013-10-19T14:10:35Z</time></trkpt>
<trkpt lat="46.72081160342291" lon="6.934634491374948"><ele></ele><time>2013-10-19T14:10:38Z</time></trkpt>
<trkpt lat="46.72082256181662" lon="6.935079118915107"><ele></ele><time>2013-10-19T14:10:41Z</time></trkpt>
<trkpt lat="46.72083173024585" lon="6.935118274248123"><ele></ele><time>2013-10-19T14:10:44Z</time></trkpt>
<trkpt lat="46.72096988902925" lon="6.935849483509224"><ele></ele><time>2013-10-19T14:10:47Z</time></trkpt>
<trkpt lat="46.720943997725115" lon="6.936098250769171"><ele></ele><time>2013-10-19T14:10:50Z</time></trkpt>
<trkpt lat="46.72093500242644" lon="6.936098334528341"><ele></ele><time>2013-10-19T14:10:53Z</time></trkpt>
<trkpt lat="46.72112384610017" lon="6.936083495754053"><ele></ele><time>2013-10-19T14:10:56Z</time></trkpt>
<trkpt lat="46.721124479582144" lon="6.936227373839977"><ele></ele><time>2013-10-19T14:10:59Z</time></trkpt>
<trkpt lat="46.72111582974266" lon="6.9363059365222055"><ele></ele><time>2013-10-19T14:11:2Z</time></trkpt>
<trkpt lat="46.721295332672256" lon="6.9362127029465155"><ele></ele><time>2013-10-19T14:11:5Z</time></trkpt>
<trkpt lat="46.721546567522076" lon="6.936066478984634"><ele></ele><time>2013-10-19T14:11:8Z</time></trkpt>
<trkpt lat="46.7219143953236" lon="6.935840684283043"><ele></ele><time>2013-10-19T14:11:11Z</time></trkpt>
<trkpt lat="46.72213005194975" lon="6.935786352710341"><ele></ele><time>2013-10-19T14:11:14Z</time></trkpt>
<trkpt lat="46.72230303637" lon="6.93625564426596"><ele></ele><time>2013-10-19T14:11:17Z</time></trkpt>
<trkpt lat="46.72244038278307" lon="6.936803754332085"><ele></ele><time>2013-10-19T14:11:20Z</time></trkpt>
<trkpt lat="46.72256821413385" lon="6.937234229145468"><ele></ele><time>2013-10-19T14:11:23Z</time></trkpt>
<trkpt lat="46.72238957204783" lon="6.937523663531454"><ele></ele><time>2013-10-19T14:11:26Z</time></trkpt>
<trkpt lat="46.722147675118066" lon="6.937748279948472"><ele></ele><time>2013-10-19T14:11:29Z</time></trkpt>
<trkpt lat="46.72175417701499" lon="6.93827515252163"><ele></ele><time>2013-10-19T14:11:32Z</time></trkpt>
<trkpt lat="46.721631680893424" lon="6.939061117160629"><ele></ele><time>2013-10-19T14:11:35Z</time></trkpt>
<trkpt lat="46.72162365873249" lon="6.93928355957953"><ele></ele><time>2013-10-19T14:11:38Z</time></trkpt>
<trkpt lat="46.721670065535676" lon="6.939610142473533"><ele></ele><time>2013-10-19T14:11:41Z</time></trkpt>
<trkpt lat="46.721833581774874" lon="6.939974885365449"><ele></ele><time>2013-10-19T14:11:44Z</time></trkpt>
<trkpt lat="46.72197887779324" lon="6.940287476424936"><ele></ele><time>2013-10-19T14:11:47Z</time></trkpt>
<trkpt lat="46.72223257315531" lon="6.9407037138332095"><ele></ele><time>2013-10-19T14:11:50Z</time></trkpt>
<trkpt lat="46.72248660908743" lon="6.941198436124001"><ele></ele><time>2013-10-19T14:11:53Z</time></trkpt>
<trkpt lat="46.72267710614033" lon="6.941562940794686"><ele></ele><time>2013-10-19T14:11:56Z</time></trkpt>
<trkpt lat="46.72289453100044" lon="6.941914119405986"><ele></ele><time>2013-10-19T14:11:59Z</time></trkpt>
<trkpt lat="46.72315693128122" lon="6.942264887174025"><ele></ele><time>2013-10-19T14:12:2Z</time></trkpt>
<trkpt lat="46.72337412656375" lon="6.942563750223318"><ele></ele><time>2013-10-19T14:12:5Z</time></trkpt>
<trkpt lat="46.723573330456446" lon="6.942862780949759"><ele></ele><time>2013-10-19T14:12:8Z</time></trkpt>
<trkpt lat="46.72376359504584" lon="6.943174976943199"><ele></ele><time>2013-10-19T14:12:11Z</time></trkpt>
<trkpt lat="46.72393541413552" lon="6.94338269608114"><ele></ele><time>2013-10-19T14:12:14Z</time></trkpt>
<trkpt lat="46.72409835101407" lon="6.943616660166545"><ele></ele><time>2013-10-19T14:12:17Z</time></trkpt>
<trkpt lat="46.72441545473272" lon="6.9441369975378615"><ele></ele><time>2013-10-19T14:12:20Z</time></trkpt>
<trkpt lat="46.72456945140253" lon="6.944384129037689"><ele></ele><time>2013-10-19T14:12:23Z</time></trkpt>
<trkpt lat="46.72476882033036" lon="6.94472241526321"><ele></ele><time>2013-10-19T14:12:26Z</time></trkpt>
<trkpt lat="46.7247873769322" lon="6.944853057837859"><ele></ele><time>2013-10-19T14:12:29Z</time></trkpt>
<trkpt lat="46.724796428825435" lon="6.9448660562574"><ele></ele><time>2013-10-19T14:12:32Z</time></trkpt>
<trkpt lat="46.724950310782475" lon="6.9450870300568"><ele></ele><time>2013-10-19T14:12:35Z</time></trkpt>
<trkpt lat="46.725004735068985" lon="6.94519118266267"><ele></ele><time>2013-10-19T14:12:38Z</time></trkpt>
<trkpt lat="46.725222996245435" lon="6.94573860348199"><ele></ele><time>2013-10-19T14:12:41Z</time></trkpt>
<trkpt lat="46.72550393974547" lon="6.946220049762342"><ele></ele><time>2013-10-19T14:12:44Z</time></trkpt>
<trkpt lat="46.725667096405104" lon="6.946506352967886"><ele></ele><time>2013-10-19T14:12:47Z</time></trkpt>
<trkpt lat="46.725757669766566" lon="6.946649423212144"><ele></ele><time>2013-10-19T14:12:50Z</time></trkpt>
<trkpt lat="46.72596613995044" lon="6.9470138053265105"><ele></ele><time>2013-10-19T14:12:53Z</time></trkpt>
<trkpt lat="46.726273726192" lon="6.947416532756745"><ele></ele><time>2013-10-19T14:12:56Z</time></trkpt>
<trkpt lat="46.726518231380474" lon="6.9477936751840454"><ele></ele><time>2013-10-19T14:12:59Z</time></trkpt>
<trkpt lat="46.72688917539569" lon="6.9482874075716925"><ele></ele><time>2013-10-19T14:13:2Z</time></trkpt>
<trkpt lat="46.72720547163477" lon="6.948624660914567"><ele></ele><time>2013-10-19T14:13:5Z</time></trkpt>
<trkpt lat="46.72746768280898" lon="6.9489362452061165"><ele></ele><time>2013-10-19T14:13:8Z</time></trkpt>
<trkpt lat="46.72788337407268" lon="6.949377260485022"><ele></ele><time>2013-10-19T14:13:11Z</time></trkpt>
<trkpt lat="46.72852512232402" lon="6.9500909597887635"><ele></ele><time>2013-10-19T14:13:14Z</time></trkpt>
<trkpt lat="46.728860075117616" lon="6.950585051758583"><ele></ele><time>2013-10-19T14:13:17Z</time></trkpt>
<trkpt lat="46.729176643968806" lon="6.950987739856118"><ele></ele><time>2013-10-19T14:13:20Z</time></trkpt>
<trkpt lat="46.729556066813274" lon="6.951363700344806"><ele></ele><time>2013-10-19T14:13:23Z</time></trkpt>
<trkpt lat="46.72979988913354" lon="6.951583900255229"><ele></ele><time>2013-10-19T14:13:26Z</time></trkpt>
<trkpt lat="46.72999856712036" lon="6.95176526194901"><ele></ele><time>2013-10-19T14:13:29Z</time></trkpt>
<trkpt lat="46.73035100146672" lon="6.952141476929807"><ele></ele><time>2013-10-19T14:13:32Z</time></trkpt>
<trkpt lat="46.73053163221608" lon="6.952309922544032"><ele></ele><time>2013-10-19T14:13:35Z</time></trkpt>
<trkpt lat="46.730847415098964" lon="6.952529482431037"><ele></ele><time>2013-10-19T14:13:38Z</time></trkpt>
<trkpt lat="46.731154257934485" lon="6.952762208161966"><ele></ele><time>2013-10-19T14:13:41Z</time></trkpt>
<trkpt lat="46.7314066831569" lon="6.952890763600099"><ele></ele><time>2013-10-19T14:13:44Z</time></trkpt>
<trkpt lat="46.73143339068617" lon="6.952825108959232"><ele></ele><time>2013-10-19T14:13:47Z</time></trkpt>
<trkpt lat="46.73144177343141" lon="6.952681122181452"><ele></ele><time>2013-10-19T14:13:50Z</time></trkpt>
<trkpt lat="46.73150351488121" lon="6.9523927431971515"><ele></ele><time>2013-10-19T14:13:53Z</time></trkpt>
<trkpt lat="46.73153910595005" lon="6.952300842386535"><ele></ele><time>2013-10-19T14:13:56Z</time></trkpt>
<trkpt lat="46.731628055415094" lon="6.9520645486350565"><ele></ele><time>2013-10-19T14:13:59Z</time></trkpt>
<trkpt lat="46.73187791527484" lon="6.951591309250571"><ele></ele><time>2013-10-19T14:14:2Z</time></trkpt>
<trkpt lat="46.7319837366243" lon="6.951093200889745"><ele></ele><time>2013-10-19T14:14:5Z</time></trkpt>
<trkpt lat="46.731974629567574" lon="6.951067117221985"><ele></ele><time>2013-10-19T14:14:8Z</time></trkpt>
<trkpt lat="46.73189344834" lon="6.951015518937656"><ele></ele><time>2013-10-19T14:14:11Z</time></trkpt>
<trkpt lat="46.73159593271554" lon="6.950861212903425"><ele></ele><time>2013-10-19T14:14:14Z</time></trkpt>
<trkpt lat="46.731550844406804" lon="6.950835454737172"><ele></ele><time>2013-10-19T14:14:17Z</time></trkpt>
<trkpt lat="46.731415467610375" lon="6.950732015824479"><ele></ele><time>2013-10-19T14:14:20Z</time></trkpt>
<trkpt lat="46.731225839249035" lon="6.9505636540968005"><ele></ele><time>2013-10-19T14:14:23Z</time></trkpt>
<trkpt lat="46.731322772808596" lon="6.9500917958127575"><ele></ele><time>2013-10-19T14:14:26Z</time></trkpt>
<trkpt lat="46.731526975341836" lon="6.949461969234272"><ele></ele><time>2013-10-19T14:14:29Z</time></trkpt>
<trkpt lat="46.73161552625508" lon="6.949134094174709"><ele></ele><time>2013-10-19T14:14:32Z</time></trkpt>
<trkpt lat="46.73147846383686" lon="6.948638188918605"><ele></ele><time>2013-10-19T14:14:35Z</time></trkpt>
<trkpt lat="46.73111612326833" lon="6.94805275453117"><ele></ele><time>2013-10-19T14:14:38Z</time></trkpt>
<trkpt lat="46.73073601424646" lon="6.9475198204364155"><ele></ele><time>2013-10-19T14:14:41Z</time></trkpt>
<trkpt lat="46.730437761777445" lon="6.947195469745468"><ele></ele><time>2013-10-19T14:14:44Z</time></trkpt>
<trkpt lat="46.730230081240606" lon="6.9470142053559405"><ele></ele><time>2013-10-19T14:14:47Z</time></trkpt>
<trkpt lat="46.72990461588549" lon="6.946637778660778"><ele></ele><time>2013-10-19T14:14:50Z</time></trkpt>
<trkpt lat="46.72956104581678" lon="6.946235356899547"><ele></ele><time>2013-10-19T14:14:53Z</time></trkpt>
<trkpt lat="46.729190714330535" lon="6.945885513876749"><ele></ele><time>2013-10-19T14:14:56Z</time></trkpt>
<trkpt lat="46.728820494783236" lon="6.945561839059221"><ele></ele><time>2013-10-19T14:14:59Z</time></trkpt>
<trkpt lat="46.7284232884085" lon="6.945238415424543"><ele></ele><time>2013-10-19T14:15:2Z</time></trkpt>
<trkpt lat="46.72791791116387" lon="6.944863658225403"><ele></ele><time>2013-10-19T14:15:5Z</time></trkpt>
<trkpt lat="46.72775469379601" lon="6.944564266601974"><ele></ele><time>2013-10-19T14:15:8Z</time></trkpt>
<trkpt lat="46.7275556644181" lon="6.944304450602469"><ele></ele><time>2013-10-19T14:15:11Z</time></trkpt>
<trkpt lat="46.72740964237349" lon="6.943821758767754"><ele></ele><time>2013-10-19T14:15:14Z</time></trkpt>
<trkpt lat="46.72741846753345" lon="6.943782432206569"><ele></ele><time>2013-10-19T14:15:17Z</time></trkpt>
<trkpt lat="46.72756023604586" lon="6.9432840194132135"><ele></ele><time>2013-10-19T14:15:20Z</time></trkpt>
<trkpt lat="46.727962809171544" lon="6.942770125508645"><ele></ele><time>2013-10-19T14:15:23Z</time></trkpt>
<trkpt lat="46.72807946385943" lon="6.942703643359956"><ele></ele><time>2013-10-19T14:15:26Z</time></trkpt>
<trkpt lat="46.728259824461674" lon="6.94280664247419"><ele></ele><time>2013-10-19T14:15:29Z</time></trkpt>
<trkpt lat="46.728413142261246" lon="6.942896808582686"><ele></ele><time>2013-10-19T14:15:32Z</time></trkpt>
<trkpt lat="46.72865698094306" lon="6.943116965568626"><ele></ele><time>2013-10-19T14:15:35Z</time></trkpt>
<trkpt lat="46.72904542502803" lon="6.943492784550554"><ele></ele><time>2013-10-19T14:15:38Z</time></trkpt>
<trkpt lat="46.72916304475735" lon="6.943648692930704"><ele></ele><time>2013-10-19T14:15:41Z</time></trkpt>
<trkpt lat="46.72931664545914" lon="6.943804272040911"><ele></ele><time>2013-10-19T14:15:44Z</time></trkpt>
<trkpt lat="46.72967815803369" lon="6.944193429749668"><ele></ele><time>2013-10-19T14:15:47Z</time></trkpt>
<trkpt lat="46.73013901385747" lon="6.944673260865965"><ele></ele><time>2013-10-19T14:15:50Z</time></trkpt>
<trkpt lat="46.73052705673316" lon="6.944957526571332"><ele></ele><time>2013-10-19T14:15:53Z</time></trkpt>
<trkpt lat="46.73078905163869" lon="6.94521678350933"><ele></ele><time>2013-10-19T14:15:56Z</time></trkpt>
<trkpt lat="46.73106926261275" lon="6.945528207528977"><ele></ele><time>2013-10-19T14:15:59Z</time></trkpt>
<trkpt lat="46.731529773972596" lon="6.945929568264095"><ele></ele><time>2013-10-19T14:16:2Z</time></trkpt>
<trkpt lat="46.731873232201316" lon="6.94630583787718"><ele></ele><time>2013-10-19T14:16:5Z</time></trkpt>
<trkpt lat="46.732252444818826" lon="6.946629454092793"><ele></ele><time>2013-10-19T14:16:8Z</time></trkpt>
<trkpt lat="46.73229747768684" lon="6.946642126533486"><ele></ele><time>2013-10-19T14:16:11Z</time></trkpt>
<trkpt lat="46.73258583458169" lon="6.946757245455709"><ele></ele><time>2013-10-19T14:16:14Z</time></trkpt>
<trkpt lat="46.73270322437213" lon="6.9468608406053285"><ele></ele><time>2013-10-19T14:16:17Z</time></trkpt>
<trkpt lat="46.73271227602939" lon="6.946873841268788"><ele></ele><time>2013-10-19T14:16:20Z</time></trkpt>
<trkpt lat="46.73286604130083" lon="6.947068687846876"><ele></ele><time>2013-10-19T14:16:23Z</time></trkpt>
<trkpt lat="46.73301019137419" lon="6.947119707541136"><ele></ele><time>2013-10-19T14:16:26Z</time></trkpt>
<trkpt lat="46.733163449368575" lon="6.947196811088418"><ele></ele><time>2013-10-19T14:16:29Z</time></trkpt>
<trkpt lat="46.73335280111718" lon="6.94729975301764"><ele></ele><time>2013-10-19T14:16:32Z</time></trkpt>
<trkpt lat="46.733740387040356" lon="6.947479391373772"><ele></ele><time>2013-10-19T14:16:35Z</time></trkpt>
<trkpt lat="46.73389392617386" lon="6.947621911655122"><ele></ele><time>2013-10-19T14:16:38Z</time></trkpt>
<trkpt lat="46.73423726627312" lon="6.947972042494453"><ele></ele><time>2013-10-19T14:16:41Z</time></trkpt>
<trkpt lat="46.734534335936665" lon="6.948021675434486"><ele></ele><time>2013-10-19T14:16:44Z</time></trkpt>
<trkpt lat="46.73478648531877" lon="6.948084800993744"><ele></ele><time>2013-10-19T14:16:47Z</time></trkpt>
<trkpt lat="46.73482246649751" lon="6.9480844738650385"><ele></ele><time>2013-10-19T14:16:50Z</time></trkpt>
<trkpt lat="46.73484045708684" lon="6.948084310300522"><ele></ele><time>2013-10-19T14:16:53Z</time></trkpt>
<trkpt lat="46.735381242708385" lon="6.948327985918734"><ele></ele><time>2013-10-19T14:16:56Z</time></trkpt>
<trkpt lat="46.735968407934585" lon="6.948898343855036"><ele></ele><time>2013-10-19T14:16:59Z</time></trkpt>
<trkpt lat="46.73635733739861" lon="6.949392007190142"><ele></ele><time>2013-10-19T14:17:2Z</time></trkpt>
<trkpt lat="46.73684577302819" lon="6.95001561782822"><ele></ele><time>2013-10-19T14:17:5Z</time></trkpt>
<trkpt lat="46.7369636076713" lon="6.9502238976942685"><ele></ele><time>2013-10-19T14:17:8Z</time></trkpt>
<trkpt lat="46.73708133002418" lon="6.950406011050766"><ele></ele><time>2013-10-19T14:17:11Z</time></trkpt>
<trkpt lat="46.73762362007045" lon="6.9510029837818585"><ele></ele><time>2013-10-19T14:17:14Z</time></trkpt>
<trkpt lat="46.7379305216625" lon="6.951248813979702"><ele></ele><time>2013-10-19T14:17:17Z</time></trkpt>
<trkpt lat="46.73846386774913" lon="6.951858969786496"><ele></ele><time>2013-10-19T14:17:20Z</time></trkpt>
<trkpt lat="46.73858175477362" lon="6.952080344000991"><ele></ele><time>2013-10-19T14:17:23Z</time></trkpt>
<trkpt lat="46.73863645134284" lon="6.9522499504215975"><ele></ele><time>2013-10-19T14:17:26Z</time></trkpt>
<trkpt lat="46.738718412148906" lon="6.952484734534063"><ele></ele><time>2013-10-19T14:17:29Z</time></trkpt>
<trkpt lat="46.73892708611446" lon="6.9529015633772495"><ele></ele><time>2013-10-19T14:17:32Z</time></trkpt>
<trkpt lat="46.73895435032772" lon="6.95296674125384"><ele></ele><time>2013-10-19T14:17:35Z</time></trkpt>
<trkpt lat="46.73905413333236" lon="6.953162113394975"><ele></ele><time>2013-10-19T14:17:38Z</time></trkpt>
<trkpt lat="46.73930889283403" lon="6.953840228151224"><ele></ele><time>2013-10-19T14:17:41Z</time></trkpt>
<trkpt lat="46.73941805837696" lon="6.954127112355819"><ele></ele><time>2013-10-19T14:17:44Z</time></trkpt>
<trkpt lat="46.7394809143774" lon="6.954100378292944"><ele></ele><time>2013-10-19T14:17:47Z</time></trkpt>
<trkpt lat="46.73999159040787" lon="6.9536116499245155"><ele></ele><time>2013-10-19T14:17:50Z</time></trkpt>
<trkpt lat="46.74015172609043" lon="6.953191491644902"><ele></ele><time>2013-10-19T14:17:53Z</time></trkpt>
<trkpt lat="46.74022218569972" lon="6.9528375633289246"><ele></ele><time>2013-10-19T14:17:56Z</time></trkpt>
<trkpt lat="46.74040075486922" lon="6.952521914953572"><ele></ele><time>2013-10-19T14:17:59Z</time></trkpt>
<trkpt lat="46.74047243862375" lon="6.952455843875433"><ele></ele><time>2013-10-19T14:18:2Z</time></trkpt>
<trkpt lat="46.74063413099035" lon="6.9524020464639"><ele></ele><time>2013-10-19T14:18:5Z</time></trkpt>
<trkpt lat="46.740966956798395" lon="6.952399046815845"><ele></ele><time>2013-10-19T14:18:8Z</time></trkpt>
<trkpt lat="46.74137202354781" lon="6.952460822307207"><ele></ele><time>2013-10-19T14:18:11Z</time></trkpt>
<trkpt lat="46.7415964042895" lon="6.952341032477985"><ele></ele><time>2013-10-19T14:18:14Z</time></trkpt>
<trkpt lat="46.74173982728073" lon="6.952221971578143"><ele></ele><time>2013-10-19T14:18:17Z</time></trkpt>
<trkpt lat="46.74193688729526" lon="6.952023913973549"><ele></ele><time>2013-10-19T14:18:20Z</time></trkpt>
<trkpt lat="46.74214277486641" lon="6.9517865189364825"><ele></ele><time>2013-10-19T14:18:23Z</time></trkpt>
<trkpt lat="46.7424367718007" lon="6.95111650460635"><ele></ele><time>2013-10-19T14:18:26Z</time></trkpt>
<trkpt lat="46.742624275547655" lon="6.950787671180645"><ele></ele><time>2013-10-19T14:18:29Z</time></trkpt>
<trkpt lat="46.742812841118756" lon="6.95070745236567"><ele></ele><time>2013-10-19T14:18:32Z</time></trkpt>
<trkpt lat="46.74304632714207" lon="6.950613740980145"><ele></ele><time>2013-10-19T14:18:35Z</time></trkpt>
<trkpt lat="46.74312728473998" lon="6.95061300862317"><ele></ele><time>2013-10-19T14:18:38Z</time></trkpt>
<trkpt lat="46.74323522820276" lon="6.950612032143794"><ele></ele><time>2013-10-19T14:18:41Z</time></trkpt>
<trkpt lat="46.743415860965726" lon="6.950780512870804"><ele></ele><time>2013-10-19T14:18:44Z</time></trkpt>
<trkpt lat="46.743524307583" lon="6.950897304176022"><ele></ele><time>2013-10-19T14:18:47Z</time></trkpt>
<trkpt lat="46.743659572279526" lon="6.950974596112362"><ele></ele><time>2013-10-19T14:18:50Z</time></trkpt>
<trkpt lat="46.74377656691756" lon="6.950986624367119"><ele></ele><time>2013-10-19T14:18:53Z</time></trkpt>
<trkpt lat="46.743884789804234" lon="6.951051075425629"><ele></ele><time>2013-10-19T14:18:56Z</time></trkpt>
<trkpt lat="46.744155374787816" lon="6.951218746916485"><ele></ele><time>2013-10-19T14:18:59Z</time></trkpt>
<trkpt lat="46.74446166143277" lon="6.951320667601217"><ele></ele><time>2013-10-19T14:19:2Z</time></trkpt>
<trkpt lat="46.74454245146301" lon="6.951280679725283"><ele></ele><time>2013-10-19T14:19:5Z</time></trkpt>
<trkpt lat="46.744821081943144" lon="6.951225818180012"><ele></ele><time>2013-10-19T14:19:8Z</time></trkpt>
<trkpt lat="46.744937964816216" lon="6.9512116760065075"><ele></ele><time>2013-10-19T14:19:11Z</time></trkpt>
<trkpt lat="46.7451350230109" lon="6.95101360296935"><ele></ele><time>2013-10-19T14:19:14Z</time></trkpt>
<trkpt lat="46.74520681764093" lon="6.950973695450512"><ele></ele><time>2013-10-19T14:19:17Z</time></trkpt>
<trkpt lat="46.745287719330854" lon="6.950959877903902"><ele></ele><time>2013-10-19T14:19:20Z</time></trkpt>
<trkpt lat="46.745711391892485" lon="6.951165428759161"><ele></ele><time>2013-10-19T14:19:23Z</time></trkpt>
<trkpt lat="46.746134896522385" lon="6.9513317251236195"><ele></ele><time>2013-10-19T14:19:26Z</time></trkpt>
<trkpt lat="46.74616188238104" lon="6.95133148135017"><ele></ele><time>2013-10-19T14:19:29Z</time></trkpt>
<trkpt lat="46.74621557483043" lon="6.951265564171743"><ele></ele><time>2013-10-19T14:19:32Z</time></trkpt>
<trkpt lat="46.74611550923905" lon="6.951004740091979"><ele></ele><time>2013-10-19T14:19:35Z</time></trkpt>
<trkpt lat="46.745843358030825" lon="6.950470660191393"><ele></ele><time>2013-10-19T14:19:38Z</time></trkpt>
<trkpt lat="46.74571636073956" lon="6.950223169522601"><ele></ele><time>2013-10-19T14:19:41Z</time></trkpt>
<trkpt lat="46.74553511115104" lon="6.9499107401188"><ele></ele><time>2013-10-19T14:19:44Z</time></trkpt>
<trkpt lat="46.74541716396777" lon="6.949676256378329"><ele></ele><time>2013-10-19T14:19:47Z</time></trkpt>
<trkpt lat="46.745362183301125" lon="6.949441202660799"><ele></ele><time>2013-10-19T14:19:50Z</time></trkpt>
<trkpt lat="46.74524373025125" lon="6.949088949504884"><ele></ele><time>2013-10-19T14:19:53Z</time></trkpt>
<trkpt lat="46.74512521996521" lon="6.9487236122370355"><ele></ele><time>2013-10-19T14:19:56Z</time></trkpt>
<trkpt lat="46.74498860555425" lon="6.948332268827393"><ele></ele><time>2013-10-19T14:19:59Z</time></trkpt>
<trkpt lat="46.74490562405268" lon="6.947861922842524"><ele></ele><time>2013-10-19T14:20:2Z</time></trkpt>
<trkpt lat="46.74477727004362" lon="6.947300388856536"><ele></ele><time>2013-10-19T14:20:5Z</time></trkpt>
<trkpt lat="46.744711993010874" lon="6.9467644545053595"><ele></ele><time>2013-10-19T14:20:8Z</time></trkpt>
<trkpt lat="46.74476365215352" lon="6.946227454063974"><ele></ele><time>2013-10-19T14:20:11Z</time></trkpt>
<trkpt lat="46.74482385203537" lon="6.9455856857360105"><ele></ele><time>2013-10-19T14:20:14Z</time></trkpt>
<trkpt lat="46.74467913623918" lon="6.945403803491897"><ele></ele><time>2013-10-19T14:20:17Z</time></trkpt>
<trkpt lat="46.744462401332825" lon="6.9452094949220635"><ele></ele><time>2013-10-19T14:20:20Z</time></trkpt>
<trkpt lat="46.74442625053804" lon="6.945170567569381"><ele></ele><time>2013-10-19T14:20:23Z</time></trkpt>
<trkpt lat="46.74427259536686" lon="6.945001855540517"><ele></ele><time>2013-10-19T14:20:26Z</time></trkpt>
<trkpt lat="46.744037359762025" lon="6.944689946216452"><ele></ele><time>2013-10-19T14:20:29Z</time></trkpt>
<trkpt lat="46.74391080298241" lon="6.9445471603225375"><ele></ele><time>2013-10-19T14:20:32Z</time></trkpt>
<trkpt lat="46.74378435930685" lon="6.944430545756974"><ele></ele><time>2013-10-19T14:20:35Z</time></trkpt>
<trkpt lat="46.743585443294954" lon="6.944196823604118"><ele></ele><time>2013-10-19T14:20:38Z</time></trkpt>
<trkpt lat="46.743476593021676" lon="6.943988448857818"><ele></ele><time>2013-10-19T14:20:41Z</time></trkpt>
<trkpt lat="46.743404177174874" lon="6.943884426791146"><ele></ele><time>2013-10-19T14:20:44Z</time></trkpt>
<trkpt lat="46.74317753656903" lon="6.94348084854629"><ele></ele><time>2013-10-19T14:20:47Z</time></trkpt>
<trkpt lat="46.743032476745014" lon="6.94322046662599"><ele></ele><time>2013-10-19T14:20:50Z</time></trkpt>
<trkpt lat="46.74287825060719" lon="6.942920913431312"><ele></ele><time>2013-10-19T14:20:53Z</time></trkpt>
<trkpt lat="46.742778052227656" lon="6.942633950801476"><ele></ele><time>2013-10-19T14:20:56Z</time></trkpt>
<trkpt lat="46.742750156640795" lon="6.942424837687313"><ele></ele><time>2013-10-19T14:20:59Z</time></trkpt>
<trkpt lat="46.74265018461486" lon="6.9421902168670435"><ele></ele><time>2013-10-19T14:21:2Z</time></trkpt>
<trkpt lat="46.7424952724781" lon="6.941733648574464"><ele></ele><time>2013-10-19T14:21:5Z</time></trkpt>
<trkpt lat="46.74244955559038" lon="6.941563957804336"><ele></ele><time>2013-10-19T14:21:8Z</time></trkpt>
<trkpt lat="46.74234901175582" lon="6.941198490109036"><ele></ele><time>2013-10-19T14:21:11Z</time></trkpt>
<trkpt lat="46.742194609158425" lon="6.940859691670752"><ele></ele><time>2013-10-19T14:21:14Z</time></trkpt>
<trkpt lat="46.74194028672185" lon="6.940299365845351"><ele></ele><time>2013-10-19T14:21:17Z</time></trkpt>
<trkpt lat="46.74178490963166" lon="6.939738130275837"><ele></ele><time>2013-10-19T14:21:20Z</time></trkpt>
<trkpt lat="46.74163073154867" lon="6.939451678766265"><ele></ele><time>2013-10-19T14:21:23Z</time></trkpt>
<trkpt lat="46.74129670434694" lon="6.939179979199062"><ele></ele><time>2013-10-19T14:21:26Z</time></trkpt>
<trkpt lat="46.740899136700214" lon="6.938778020011388"><ele></ele><time>2013-10-19T14:21:29Z</time></trkpt>
<trkpt lat="46.74043808457345" lon="6.938258890014527"><ele></ele><time>2013-10-19T14:21:32Z</time></trkpt>
<trkpt lat="46.740194122069965" lon="6.9380125380031785"><ele></ele><time>2013-10-19T14:21:35Z</time></trkpt>
<trkpt lat="46.73998608275274" lon="6.937752769777097"><ele></ele><time>2013-10-19T14:21:38Z</time></trkpt>
<trkpt lat="46.73976916242615" lon="6.937519255806231"><ele></ele><time>2013-10-19T14:21:41Z</time></trkpt>
<trkpt lat="46.739461829068475" lon="6.93718190542558"><ele></ele><time>2013-10-19T14:21:44Z</time></trkpt>
<trkpt lat="46.7391636625102" lon="6.936883727827056"><ele></ele><time>2013-10-19T14:21:47Z</time></trkpt>
<trkpt lat="46.73897389882538" lon="6.936689222288035"><ele></ele><time>2013-10-19T14:21:50Z</time></trkpt>
<trkpt lat="46.73877519707231" lon="6.936507885943875"><ele></ele><time>2013-10-19T14:21:53Z</time></trkpt>
<trkpt lat="46.738657510139234" lon="6.936338881276146"><ele></ele><time>2013-10-19T14:21:56Z</time></trkpt>
<trkpt lat="46.73845875023341" lon="6.936144463257121"><ele></ele><time>2013-10-19T14:21:59Z</time></trkpt>
<trkpt lat="46.73827821099645" lon="6.93600221498824"><ele></ele><time>2013-10-19T14:22:2Z</time></trkpt>
<trkpt lat="46.73802559406777" lon="6.935834470427263"><ele></ele><time>2013-10-19T14:22:5Z</time></trkpt>
<trkpt lat="46.73776478848826" lon="6.935849985333241"><ele></ele><time>2013-10-19T14:22:8Z</time></trkpt>
<trkpt lat="46.73754007927451" lon="6.9358913324059435"><ele></ele><time>2013-10-19T14:22:11Z</time></trkpt>
<trkpt lat="46.7374859923329" lon="6.935865667736401"><ele></ele><time>2013-10-19T14:22:14Z</time></trkpt>
<trkpt lat="46.737225186734406" lon="6.9358811823365105"><ele></ele><time>2013-10-19T14:22:17Z</time></trkpt>
<trkpt lat="46.73693751050974" lon="6.935923115558294"><ele></ele><time>2013-10-19T14:22:20Z</time></trkpt>
<trkpt lat="46.736585887669264" lon="6.935743214208293"><ele></ele><time>2013-10-19T14:22:23Z</time></trkpt>
<trkpt lat="46.73634191963857" lon="6.93549689116352"><ele></ele><time>2013-10-19T14:22:26Z</time></trkpt>
<trkpt lat="46.73610625393168" lon="6.935093484935494"><ele></ele><time>2013-10-19T14:22:29Z</time></trkpt>
<trkpt lat="46.73570884494461" lon="6.934730844614879"><ele></ele><time>2013-10-19T14:22:32Z</time></trkpt>
<trkpt lat="46.735293097429576" lon="6.934289878221687"><ele></ele><time>2013-10-19T14:22:35Z</time></trkpt>
<trkpt lat="46.734922613863574" lon="6.933913913689176"><ele></ele><time>2013-10-19T14:22:38Z</time></trkpt>
<trkpt lat="46.73458021452231" lon="6.933786280320633"><ele></ele><time>2013-10-19T14:22:41Z</time></trkpt>
<trkpt lat="46.73434604780102" lon="6.933723053475949"><ele></ele><time>2013-10-19T14:22:44Z</time></trkpt>
<trkpt lat="46.734156104958124" lon="6.933489327474888"><ele></ele><time>2013-10-19T14:22:47Z</time></trkpt>
<trkpt lat="46.73399268406643" lon="6.933150686818907"><ele></ele><time>2013-10-19T14:22:50Z</time></trkpt>
<trkpt lat="46.733829494044855" lon="6.93286437982455"><ele></ele><time>2013-10-19T14:22:53Z</time></trkpt>
<trkpt lat="46.73382044079321" lon="6.9328513812424"><ele></ele><time>2013-10-19T14:22:56Z</time></trkpt>
<trkpt lat="46.73365736601639" lon="6.932591241788447"><ele></ele><time>2013-10-19T14:22:59Z</time></trkpt>
<trkpt lat="46.73361204158098" lon="6.932513166508321"><ele></ele><time>2013-10-19T14:23:2Z</time></trkpt>
<trkpt lat="46.733576060442985" lon="6.932513504014036"><ele></ele><time>2013-10-19T14:23:5Z</time></trkpt>
<trkpt lat="46.73375497979944" lon="6.932289407450358"><ele></ele><time>2013-10-19T14:23:8Z</time></trkpt>
<trkpt lat="46.7337728543002" lon="6.932263072845778"><ele></ele><time>2013-10-19T14:23:11Z</time></trkpt>
<trkpt lat="46.7340411453133" lon="6.931907300541768"><ele></ele><time>2013-10-19T14:23:14Z</time></trkpt>
<trkpt lat="46.73417363404315" lon="6.931356547995246"><ele></ele><time>2013-10-19T14:23:17Z</time></trkpt>
<trkpt lat="46.734334095184785" lon="6.931027950143709"><ele></ele><time>2013-10-19T14:23:20Z</time></trkpt>
<trkpt lat="46.73448602576358" lon="6.93080409949366"><ele></ele><time>2013-10-19T14:23:23Z</time></trkpt>
<trkpt lat="46.734485909355556" lon="6.930777933374542"><ele></ele><time>2013-10-19T14:23:26Z</time></trkpt>
<trkpt lat="46.73469151995911" lon="6.930488157616059"><ele></ele><time>2013-10-19T14:23:29Z</time></trkpt>
<trkpt lat="46.734906241645106" lon="6.930224461206183"><ele></ele><time>2013-10-19T14:23:32Z</time></trkpt>
<trkpt lat="46.735067049328286" lon="6.929974354722788"><ele></ele><time>2013-10-19T14:23:35Z</time></trkpt>
<trkpt lat="46.73520986589896" lon="6.929724416436411"><ele></ele><time>2013-10-19T14:23:38Z</time></trkpt>
<trkpt lat="46.735352973676015" lon="6.929539893168734"><ele></ele><time>2013-10-19T14:23:41Z</time></trkpt>
<trkpt lat="46.7356301930488" lon="6.929170928633592"><ele></ele><time>2013-10-19T14:23:44Z</time></trkpt>
<trkpt lat="46.73572855715669" lon="6.92903916073493"><ele></ele><time>2013-10-19T14:23:47Z</time></trkpt>
<trkpt lat="46.73595209543998" lon="6.928736118247575"><ele></ele><time>2013-10-19T14:23:50Z</time></trkpt>
<trkpt lat="46.736113133705416" lon="6.928538336286385"><ele></ele><time>2013-10-19T14:23:53Z</time></trkpt>
<trkpt lat="46.73631885557662" lon="6.928274710255546"><ele></ele><time>2013-10-19T14:23:56Z</time></trkpt>
<trkpt lat="46.73663216901163" lon="6.927931559170235"><ele></ele><time>2013-10-19T14:23:59Z</time></trkpt>
<trkpt lat="46.73679279595419" lon="6.9276421870047615"><ele></ele><time>2013-10-19T14:24:2Z</time></trkpt>
<trkpt lat="46.73695324635962" lon="6.927313562153698"><ele></ele><time>2013-10-19T14:24:5Z</time></trkpt>
<trkpt lat="46.73721246793618" lon="6.926944745855906"><ele></ele><time>2013-10-19T14:24:8Z</time></trkpt>
<trkpt lat="46.73734616521489" lon="6.926668707465518"><ele></ele><time>2013-10-19T14:24:11Z</time></trkpt>
<trkpt lat="46.73741718841123" lon="6.926458684355501"><ele></ele><time>2013-10-19T14:24:14Z</time></trkpt>
<trkpt lat="46.73767670090851" lon="6.92615527991975"><ele></ele><time>2013-10-19T14:24:17Z</time></trkpt>
<trkpt lat="46.73784714121811" lon="6.926048985542429"><ele></ele><time>2013-10-19T14:24:20Z</time></trkpt>
<trkpt lat="46.73814369155405" lon="6.9259807456104365"><ele></ele><time>2013-10-19T14:24:23Z</time></trkpt>
<trkpt lat="46.73824263958269" lon="6.925979805408665"><ele></ele><time>2013-10-19T14:24:26Z</time></trkpt>
<trkpt lat="46.738521728123175" lon="6.926029491862866"><ele></ele><time>2013-10-19T14:24:29Z</time></trkpt>
<trkpt lat="46.738692755844504" lon="6.926054036168128"><ele></ele><time>2013-10-19T14:24:32Z</time></trkpt>
<trkpt lat="46.739006709083974" lon="6.925854782741067"><ele></ele><time>2013-10-19T14:24:35Z</time></trkpt>
<trkpt lat="46.73934500060211" lon="6.925066479951205"><ele></ele><time>2013-10-19T14:24:38Z</time></trkpt>
<trkpt lat="46.73933471004412" lon="6.924778712534876"><ele></ele><time>2013-10-19T14:24:41Z</time></trkpt>
<trkpt lat="46.739081428528124" lon="6.924467091404629"><ele></ele><time>2013-10-19T14:24:44Z</time></trkpt>
<trkpt lat="46.73891862950854" lon="6.924272372563546"><ele></ele><time>2013-10-19T14:24:47Z</time></trkpt>
<trkpt lat="46.73859291247018" lon="6.923856770310953"><ele></ele><time>2013-10-19T14:24:50Z</time></trkpt>
<trkpt lat="46.73806746674043" lon="6.923037461266031"><ele></ele><time>2013-10-19T14:24:53Z</time></trkpt>
<trkpt lat="46.737949878079206" lon="6.922894655984505"><ele></ele><time>2013-10-19T14:24:56Z</time></trkpt>
<trkpt lat="46.737652028993146" lon="6.922675068620343"><ele></ele><time>2013-10-19T14:24:59Z</time></trkpt>
<trkpt lat="46.73754379002316" lon="6.922610681934416"><ele></ele><time>2013-10-19T14:25:2Z</time></trkpt>
<trkpt lat="46.737444487139385" lon="6.922533125694521"><ele></ele><time>2013-10-19T14:25:5Z</time></trkpt>
<trkpt lat="46.737417383015156" lon="6.922507216310845"><ele></ele><time>2013-10-19T14:25:8Z</time></trkpt>
<trkpt lat="46.737569651882524" lon="6.922361831661927"><ele></ele><time>2013-10-19T14:25:11Z</time></trkpt>
<trkpt lat="46.73763255962381" lon="6.922348145321158"><ele></ele><time>2013-10-19T14:25:14Z</time></trkpt>
<trkpt lat="46.737910525338854" lon="6.922149218688483"><ele></ele><time>2013-10-19T14:25:17Z</time></trkpt>
<trkpt lat="46.737972367281245" lon="6.921900021891895"><ele></ele><time>2013-10-19T14:25:20Z</time></trkpt>
<trkpt lat="46.73798935081807" lon="6.921677423294664"><ele></ele><time>2013-10-19T14:25:23Z</time></trkpt>
<trkpt lat="46.737979288829685" lon="6.921441999342033"><ele></ele><time>2013-10-19T14:25:26Z</time></trkpt>
<trkpt lat="46.73790542907113" lon="6.921024005058541"><ele></ele><time>2013-10-19T14:25:29Z</time></trkpt>
<trkpt lat="46.73778617578761" lon="6.920514856819591"><ele></ele><time>2013-10-19T14:25:32Z</time></trkpt>
<trkpt lat="46.73774918499509" lon="6.920292777078043"><ele></ele><time>2013-10-19T14:25:35Z</time></trkpt>
<trkpt lat="46.737892455765696" lon="6.920147471729828"><ele></ele><time>2013-10-19T14:25:38Z</time></trkpt>
<trkpt lat="46.737964358510524" lon="6.920133696277755"><ele></ele><time>2013-10-19T14:25:41Z</time></trkpt>
<trkpt lat="46.73815195147543" lon="6.919844034262922"><ele></ele><time>2013-10-19T14:25:44Z</time></trkpt>
<trkpt lat="46.7381153757313" lon="6.919713540968505"><ele></ele><time>2013-10-19T14:25:47Z</time></trkpt>
<trkpt lat="46.7378084657612" lon="6.919480973194264"><ele></ele><time>2013-10-19T14:25:50Z</time></trkpt>
<trkpt lat="46.73747409323154" lon="6.919143997675789"><ele></ele><time>2013-10-19T14:25:53Z</time></trkpt>
<trkpt lat="46.73726529599464" lon="6.918727310667101"><ele></ele><time>2013-10-19T14:25:56Z</time></trkpt>
<trkpt lat="46.73704780011477" lon="6.918376131969669"><ele></ele><time>2013-10-19T14:25:59Z</time></trkpt>
<trkpt lat="46.7368937473335" lon="6.918129017559208"><ele></ele><time>2013-10-19T14:26:2Z</time></trkpt>
<trkpt lat="46.73669447891575" lon="6.917830004339781"><ele></ele><time>2013-10-19T14:26:5Z</time></trkpt>
<trkpt lat="46.736459348072756" lon="6.9175575078921865"><ele></ele><time>2013-10-19T14:26:8Z</time></trkpt>
<trkpt lat="46.736260615883225" lon="6.917376250467585"><ele></ele><time>2013-10-19T14:26:11Z</time></trkpt>
<trkpt lat="46.73619752950255" lon="6.9173506918777585"><ele></ele><time>2013-10-19T14:26:14Z</time></trkpt>
<trkpt lat="46.73585576895315" lon="6.91736707775941"><ele></ele><time>2013-10-19T14:26:17Z</time></trkpt>
<trkpt lat="46.73547731030807" lon="6.917226811617465"><ele></ele><time>2013-10-19T14:26:20Z</time></trkpt>
<trkpt lat="46.73509771548552" lon="6.916837966777581"><ele></ele><time>2013-10-19T14:26:23Z</time></trkpt>
<trkpt lat="46.734825763321375" lon="6.916382667097829"><ele></ele><time>2013-10-19T14:26:26Z</time></trkpt>
<trkpt lat="46.73467932373814" lon="6.91583457036857"><ele></ele><time>2013-10-19T14:26:29Z</time></trkpt>
<trkpt lat="46.73452442601872" lon="6.915404311332054"><ele></ele><time>2013-10-19T14:26:32Z</time></trkpt>
<trkpt lat="46.7344148030936" lon="6.915039033381327"><ele></ele><time>2013-10-19T14:26:35Z</time></trkpt>
<trkpt lat="46.734277892912175" lon="6.914608604013047"><ele></ele><time>2013-10-19T14:26:38Z</time></trkpt>
<trkpt lat="46.73423243604269" lon="6.914504376983038"><ele></ele><time>2013-10-19T14:26:41Z</time></trkpt>
<trkpt lat="46.73405072784479" lon="6.914113636490754"><ele></ele><time>2013-10-19T14:26:44Z</time></trkpt>
<trkpt lat="46.73391435559112" lon="6.9138009584952265"><ele></ele><time>2013-10-19T14:26:47Z</time></trkpt>
<trkpt lat="46.733760232675436" lon="6.913540788636082"><ele></ele><time>2013-10-19T14:26:50Z</time></trkpt>
<trkpt lat="46.73361528506038" lon="6.913319781168077"><ele></ele><time>2013-10-19T14:26:53Z</time></trkpt>
<trkpt lat="46.73341600397782" lon="6.9130208038812775"><ele></ele><time>2013-10-19T14:26:56Z</time></trkpt>
<trkpt lat="46.73329749870528" lon="6.912681791467536"><ele></ele><time>2013-10-19T14:26:59Z</time></trkpt>
<trkpt lat="46.73315176532975" lon="6.9122907128956745"><ele></ele><time>2013-10-19T14:27:2Z</time></trkpt>
<trkpt lat="46.73303331824812" lon="6.911964786432497"><ele></ele><time>2013-10-19T14:27:5Z</time></trkpt>
<trkpt lat="46.73299697497267" lon="6.9118866415709705"><ele></ele><time>2013-10-19T14:27:8Z</time></trkpt>
<trkpt lat="46.73296032972654" lon="6.911743083470803"><ele></ele><time>2013-10-19T14:27:11Z</time></trkpt>
<trkpt lat="46.732779155879435" lon="6.911470105110281"><ele></ele><time>2013-10-19T14:27:14Z</time></trkpt>
<trkpt lat="46.73241753188097" lon="6.911081144323273"><ele></ele><time>2013-10-19T14:27:17Z</time></trkpt>
<trkpt lat="46.73225434697945" lon="6.910807994945778"><ele></ele><time>2013-10-19T14:27:20Z</time></trkpt>
<trkpt lat="46.732045882428196" lon="6.910469875183646"><ele></ele><time>2013-10-19T14:27:23Z</time></trkpt>
<trkpt lat="46.73203676608973" lon="6.910443798346018"><ele></ele><time>2013-10-19T14:27:26Z</time></trkpt>
<trkpt lat="46.73168413383567" lon="6.910054761672088"><ele></ele><time>2013-10-19T14:27:29Z</time></trkpt>
<trkpt lat="46.7314125182912" lon="6.909678018735559"><ele></ele><time>2013-10-19T14:27:32Z</time></trkpt>
<trkpt lat="46.731076842362555" lon="6.909066417521356"><ele></ele><time>2013-10-19T14:27:35Z</time></trkpt>
<trkpt lat="46.731238028767635" lon="6.908907841472807"><ele></ele><time>2013-10-19T14:27:38Z</time></trkpt>
<trkpt lat="46.73126282796482" lon="6.908436615406469"><ele></ele><time>2013-10-19T14:27:41Z</time></trkpt>
<trkpt lat="46.7314119771344" lon="6.90762401087375"><ele></ele><time>2013-10-19T14:27:44Z</time></trkpt>
<trkpt lat="46.7311841724794" lon="6.906998276722726"><ele></ele><time>2013-10-19T14:27:47Z</time></trkpt>
<trkpt lat="46.73095703532787" lon="6.906516451801832"><ele></ele><time>2013-10-19T14:27:50Z</time></trkpt>
<trkpt lat="46.730667417550336" lon="6.906139909292098"><ele></ele><time>2013-10-19T14:27:53Z</time></trkpt>
<trkpt lat="46.730586093942314" lon="6.906062215688837"><ele></ele><time>2013-10-19T14:27:56Z</time></trkpt>
<trkpt lat="46.73055005183429" lon="6.90604948873679"><ele></ele><time>2013-10-19T14:27:59Z</time></trkpt>
<trkpt lat="46.73048714600218" lon="6.906063192283818"><ele></ele><time>2013-10-19T14:28:2Z</time></trkpt>
<trkpt lat="46.730308400104654" lon="6.906313526268985"><ele></ele><time>2013-10-19T14:28:5Z</time></trkpt>
<trkpt lat="46.730129775613406" lon="6.906590022548713"><ele></ele><time>2013-10-19T14:28:8Z</time></trkpt>
<trkpt lat="46.729886964349326" lon="6.906605499160865"><ele></ele><time>2013-10-19T14:28:11Z</time></trkpt>
<trkpt lat="46.72958963263737" lon="6.906503771143084"><ele></ele><time>2013-10-19T14:28:14Z</time></trkpt>
<trkpt lat="46.72931059634114" lon="6.906467275689864"><ele></ele><time>2013-10-19T14:28:17Z</time></trkpt>
<trkpt lat="46.72902360147231" lon="6.9066532583716596"><ele></ele><time>2013-10-19T14:28:20Z</time></trkpt>
<trkpt lat="46.728773135852926" lon="6.906956619310743"><ele></ele><time>2013-10-19T14:28:23Z</time></trkpt>
<trkpt lat="46.72862149558579" lon="6.907232839845268"><ele></ele><time>2013-10-19T14:28:26Z</time></trkpt>
<trkpt lat="46.72840737468672" lon="6.907614331064941"><ele></ele><time>2013-10-19T14:28:29Z</time></trkpt>
<trkpt lat="46.7281302247938" lon="6.907983356949585"><ele></ele><time>2013-10-19T14:28:32Z</time></trkpt>
<trkpt lat="46.7278180040818" lon="6.908548953895946"><ele></ele><time>2013-10-19T14:28:35Z</time></trkpt>
<trkpt lat="46.727568140503614" lon="6.908983112838797"><ele></ele><time>2013-10-19T14:28:38Z</time></trkpt>
<trkpt lat="46.72746986015503" lon="6.909127978701841"><ele></ele><time>2013-10-19T14:28:41Z</time></trkpt>
<trkpt lat="46.72738099954988" lon="6.90936432498858"><ele></ele><time>2013-10-19T14:28:44Z</time></trkpt>
<trkpt lat="46.7273724288592" lon="6.909455982392983"><ele></ele><time>2013-10-19T14:28:47Z</time></trkpt>
<trkpt lat="46.72735577223559" lon="6.9097439475744595"><ele></ele><time>2013-10-19T14:28:50Z</time></trkpt>
<trkpt lat="46.727357529478624" lon="6.910123305507797"><ele></ele><time>2013-10-19T14:28:53Z</time></trkpt>
<trkpt lat="46.72732348594742" lon="6.9105422595114945"><ele></ele><time>2013-10-19T14:28:56Z</time></trkpt>
<trkpt lat="46.727235650657306" lon="6.911000984582212"><ele></ele><time>2013-10-19T14:28:59Z</time></trkpt>
<trkpt lat="46.727147269684885" lon="6.911341976828514"><ele></ele><time>2013-10-19T14:29:2Z</time></trkpt>
<trkpt lat="46.72707615340524" lon="6.911525817376171"><ele></ele><time>2013-10-19T14:29:5Z</time></trkpt>
<trkpt lat="46.72702338969803" lon="6.911787969146234"><ele></ele><time>2013-10-19T14:29:8Z</time></trkpt>
<trkpt lat="46.727006425426175" lon="6.9120105256172595"><ele></ele><time>2013-10-19T14:29:11Z</time></trkpt>
<trkpt lat="46.72664075563187" lon="6.912694343853751"><ele></ele><time>2013-10-19T14:29:14Z</time></trkpt>
<trkpt lat="46.72634614077448" lon="6.9131812363784135"><ele></ele><time>2013-10-19T14:29:17Z</time></trkpt>
<trkpt lat="46.72612246299926" lon="6.913445046314605"><ele></ele><time>2013-10-19T14:29:20Z</time></trkpt>
<trkpt lat="46.72585308617176" lon="6.913552320185866"><ele></ele><time>2013-10-19T14:29:23Z</time></trkpt>
<trkpt lat="46.725619991165985" lon="6.913724647414559"><ele></ele><time>2013-10-19T14:29:26Z</time></trkpt>
<trkpt lat="46.72556662102513" lon="6.91385598117386"><ele></ele><time>2013-10-19T14:29:29Z</time></trkpt>
<trkpt lat="46.72554113834848" lon="6.914183265403812"><ele></ele><time>2013-10-19T14:29:32Z</time></trkpt>
<trkpt lat="46.72553238348848" lon="6.914235676305504"><ele></ele><time>2013-10-19T14:29:35Z</time></trkpt>
<trkpt lat="46.72547049812456" lon="6.91447174358095"><ele></ele><time>2013-10-19T14:29:38Z</time></trkpt>
<trkpt lat="46.72524675730173" lon="6.914722463085068"><ele></ele><time>2013-10-19T14:29:41Z</time></trkpt>
<trkpt lat="46.72495902846407" lon="6.914751419066582"><ele></ele><time>2013-10-19T14:29:44Z</time></trkpt>
<trkpt lat="46.72470710060389" lon="6.91474078345146"><ele></ele><time>2013-10-19T14:29:47Z</time></trkpt>
<trkpt lat="46.72438309040742" lon="6.914704685362179"><ele></ele><time>2013-10-19T14:29:50Z</time></trkpt>
<trkpt lat="46.724013983682994" lon="6.9146428633810055"><ele></ele><time>2013-10-19T14:29:53Z</time></trkpt>
<trkpt lat="46.72377135133061" lon="6.914697543338171"><ele></ele><time>2013-10-19T14:29:56Z</time></trkpt>
<trkpt lat="46.723699509183575" lon="6.914724402838121"><ele></ele><time>2013-10-19T14:29:59Z</time></trkpt>
<trkpt lat="46.7235826906282" lon="6.914751698874769"><ele></ele><time>2013-10-19T14:30:2Z</time></trkpt>
<trkpt lat="46.72338527474872" lon="6.914858262748079"><ele></ele><time>2013-10-19T14:30:5Z</time></trkpt>
<trkpt lat="46.723331483148755" lon="6.914898027581895"><ele></ele><time>2013-10-19T14:30:8Z</time></trkpt>
<trkpt lat="46.723304797416006" lon="6.914963691128977"><ele></ele><time>2013-10-19T14:30:11Z</time></trkpt>
<trkpt lat="46.7232784716819" lon="6.915107836561971"><ele></ele><time>2013-10-19T14:30:14Z</time></trkpt>
<trkpt lat="46.72325346507425" lon="6.91553974887956"><ele></ele><time>2013-10-19T14:30:17Z</time></trkpt>
<trkpt lat="46.72323595408032" lon="6.91564456578209"><ele></ele><time>2013-10-19T14:30:20Z</time></trkpt>
<trkpt lat="46.72324542883428" lon="6.915749121152432"><ele></ele><time>2013-10-19T14:30:23Z</time></trkpt>
<trkpt lat="46.723121292057854" lon="6.916142749951635"><ele></ele><time>2013-10-19T14:30:26Z</time></trkpt>
<trkpt lat="46.72310348113636" lon="6.916182164981366"><ele></ele><time>2013-10-19T14:30:29Z</time></trkpt>
<trkpt lat="46.72303169850974" lon="6.916222102439073"><ele></ele><time>2013-10-19T14:30:32Z</time></trkpt>
<trkpt lat="46.722914819716884" lon="6.916236314657469"><ele></ele><time>2013-10-19T14:30:35Z</time></trkpt>
<trkpt lat="46.722824926767345" lon="6.916250265602783"><ele></ele><time>2013-10-19T14:30:38Z</time></trkpt>
<trkpt lat="46.72251027149152" lon="6.916292553475239"><ele></ele><time>2013-10-19T14:30:41Z</time></trkpt>
<trkpt lat="46.72232125082389" lon="6.916268221602723"><ele></ele><time>2013-10-19T14:30:44Z</time></trkpt>
<trkpt lat="46.722303020772365" lon="6.916216075375839"><ele></ele><time>2013-10-19T14:30:47Z</time></trkpt>
<trkpt lat="46.72232125082389" lon="6.916268221602723"><ele></ele><time>2013-10-19T14:30:50Z</time></trkpt>
<trkpt lat="46.722303020772365" lon="6.916216075375839"><ele></ele><time>2013-10-19T14:30:53Z</time></trkpt>
</trkseg></trk></gpx>